Observation data for Clyde on 02/23/2019      Previous  Date  Next       Current Mesonet Observations  Soil Data  Daily Summary Page  Observations in Plain Language
KCL2 230600Z 14015KT 10/10 A2974 RMK A01 T00990099  RH  100%=      5-min Rain = 0
KCL2 230601Z 14017KT 10/10 A2974 RMK A01 T00990099  RH  100%=      5-min Rain = 0
KCL2 230602Z 14015KT 10/10 A2974 RMK A01 T00990099  RH  100%=      5-min Rain = 0
KCL2 230603Z 14017G22KT 10/10 A2974 RMK A01 T00990099  RH  100%=      5-min Rain = 0
KCL2 230604Z 14016KT 10/10 A2974 RMK A01 T00990099  RH  100%=      5-min Rain = 0
KCL2 230605Z 15014KT 10/10 A2974 RMK A01 T00990099  RH  100%=      5-min Rain = 0
KCL2 230606Z 15013KT 10/10 A2974 RMK A01 T00990099  RH  100%=      5-min Rain = 0
KCL2 230607Z 15013G21KT 10/10 A2974 RMK A01 T00990099  RH  100%=      5-min Rain = 0
KCL2 230608Z 15016KT 10/10 A2974 RMK A01 T00990099  RH  100%=      5-min Rain = 0
KCL2 230609Z 15014G20KT 10/10 A2974 RMK A01 T00980099  RH  100%=      5-min Rain = 0
KCL2 230610Z 15016KT 10/10 A2974 RMK A01 T00990099  RH  100%=      5-min Rain = 0
KCL2 230611Z 15016KT 10/10 A2974 RMK A01 T00990099  RH  100%=      5-min Rain = 0
KCL2 230612Z 15014G19KT 10/10 A2974 RMK A01 T00990099  RH  100%=      5-min Rain = 0
KCL2 230613Z 14014G19KT 10/10 A2974 RMK A01 T00990099  RH  100%=      5-min Rain = 0
KCL2 230614Z 15013KT 10/10 A2973 RMK A01 T00990099  RH  100%=      5-min Rain = 0
KCL2 230615Z 15011KT 10/10 A2973 RMK A01 T00990099  RH  100%=      5-min Rain = 0
KCL2 230616Z 15010KT 10/10 A2973 RMK A01 T00980098  RH  100%=      5-min Rain = 0
KCL2 230617Z 15013KT 10/10 A2973 RMK A01 T00980098  RH  100%=      5-min Rain = 0
KCL2 230618Z 15014KT 10/10 A2973 RMK A01 T00980098  RH  100%=      5-min Rain = 0
KCL2 230619Z 15016KT 10/10 A2973 RMK A01 T00980098  RH  100%=      5-min Rain = 0
KCL2 230620Z 15014KT 10/10 A2974 RMK A01 T00980099  RH  100%=      5-min Rain = 0
KCL2 230621Z 15015KT 10/10 A2974 RMK A01 T00980098  RH  100%=      5-min Rain = 0
KCL2 230622Z 15013KT 10/10 A2973 RMK A01 T00980098  RH  100%=      5-min Rain = 0
KCL2 230623Z 15015KT 10/10 A2973 RMK A01 T00980098  RH  100%=      5-min Rain = 0
KCL2 230624Z 15017KT 10/10 A2974 RMK A01 T00980098  RH  100%=      5-min Rain = 0
KCL2 230625Z 15014KT 10/10 A2974 RMK A01 T00980098  RH  100%=      5-min Rain = 0
KCL2 230626Z 15014KT 10/10 A2974 RMK A01 T00980098  RH  100%=      5-min Rain = 0
KCL2 230627Z 15013KT 10/10 A2974 RMK A01 T00980098  RH  100%=      5-min Rain = 0
KCL2 230628Z 14014KT 10/10 A2974 RMK A01 T00980098  RH  100%=      5-min Rain = 0
KCL2 230629Z 15013KT 10/10 A2974 RMK A01 T00980098  RH  100%=      5-min Rain = 0
KCL2 230630Z 15019KT 10/10 A2974 RMK A01 T00980098  RH  100%=      5-min Rain = 0
KCL2 230631Z 15018KT 10/10 A2974 RMK A01 T00980098  RH  100%=      5-min Rain = 0
KCL2 230632Z 16017KT 10/10 A2974 RMK A01 T00980098  RH  100%=      5-min Rain = 0
KCL2 230633Z 16013KT 10/10 A2974 RMK A01 T00980098  RH  100%=      5-min Rain = 0
KCL2 230634Z 15014G19KT 10/10 A2974 RMK A01 T00980098  RH  100%=      5-min Rain = 0
KCL2 230635Z 15015KT 10/10 A2974 RMK A01 T00980098  RH  100%=      5-min Rain = 0
KCL2 230636Z 16013KT 10/10 A2975 RMK A01 T00980098  RH  100%=      5-min Rain = 0
KCL2 230637Z 16017KT 10/10 A2975 RMK A01 T00980098  RH  100%=      5-min Rain = 0
KCL2 230638Z 15016KT 10/10 A2975 RMK A01 T00980098  RH  100%=      5-min Rain = 0
KCL2 230639Z 16015KT 10/10 A2975 RMK A01 T00980098  RH  100%=      5-min Rain = 0
KCL2 230640Z 15018G23KT 10/10 A2974 RMK A01 T00980098  RH  100%=      5-min Rain = 0
KCL2 230641Z 15014KT 10/10 A2974 RMK A01 T00980098  RH  100%=      5-min Rain = 0
KCL2 230642Z 15013KT 10/10 A2975 RMK A01 T00980098  RH  100%=      5-min Rain = 0
KCL2 230643Z 16014KT 10/10 A2974 RMK A01 T00980098  RH  100%=      5-min Rain = 0
KCL2 230644Z 15015KT 10/10 A2975 RMK A01 T00980098  RH  100%=      5-min Rain = 0
KCL2 230645Z 15014KT 10/10 A2974 RMK A01 T00980098  RH  100%=      5-min Rain = 0
KCL2 230646Z 15013KT 10/10 A2974 RMK A01 T00990099  RH  100%=      5-min Rain = 0.01
KCL2 230647Z 16012G18KT 10/10 A2975 RMK A01 T00990099  RH  100%=      5-min Rain = 0
KCL2 230648Z 15014KT 10/10 A2975 RMK A01 T00980099  RH  100%=      5-min Rain = 0
KCL2 230649Z 16016KT 10/10 A2975 RMK A01 T00990099  RH  100%=      5-min Rain = 0
KCL2 230650Z 16015G21KT 10/10 A2975 RMK A01 T00990099  RH  100%=      5-min Rain = 0
KCL2 230651Z 16015KT 10/10 A2975 RMK A01 T00990099  RH  100%=      5-min Rain = 0
KCL2 230652Z 16015G20KT 10/10 A2975 RMK A01 T00990099  RH  100%=      5-min Rain = 0
KCL2 230653Z 16013G20KT 10/10 A2975 RMK A01 T01000100  RH  100%=      5-min Rain = 0
KCL2 230654Z 16016KT 10/10 A2975 RMK A01 T01000100  RH  100%=      5-min Rain = 0
KCL2 230655Z 16016G21KT 10/10 A2975 RMK A01 T01000100  RH  100%=      5-min Rain = 0
KCL2 230656Z 15013KT 10/10 A2975 RMK A01 T01000100  RH  100%=      5-min Rain = 0
KCL2 230657Z 16019G25KT 10/10 A2974 RMK A01 T01000100  RH  100%=      5-min Rain = 0
KCL2 230658Z 15016KT 10/10 A2974 RMK A01 T01010101  RH  100%=      5-min Rain = 0
KCL2 230659Z 15014KT 10/10 A2974 RMK A01 T01010101  RH  100%=      5-min Rain = 0
KCL2 230700Z 15015G20KT 10/10 A2974 RMK A01 T01010101  RH  100%=      5-min Rain = 0
KCL2 230701Z 16015KT 10/10 A2974 RMK A01 T01010101  RH  100%=      5-min Rain = 0
KCL2 230702Z 16016G21KT 10/10 A2974 RMK A01 T01010101  RH  100%=      5-min Rain = 0
KCL2 230703Z 16015G20KT 10/10 A2974 RMK A01 T01010101  RH  100%=      5-min Rain = 0
KCL2 230704Z 16017KT 10/10 A2974 RMK A01 T01020102  RH  100%=      5-min Rain = 0
KCL2 230705Z 15015KT 10/10 A2974 RMK A01 T01020102  RH  100%=      5-min Rain = 0
KCL2 230706Z 16014G22KT 10/10 A2974 RMK A01 T01020102  RH  100%=      5-min Rain = 0
KCL2 230707Z 16018G25KT 10/10 A2973 RMK A01 T01020102  RH  100%=      5-min Rain = 0
KCL2 230708Z 16016G21KT 10/10 A2973 RMK A01 T01020102  RH  100%=      5-min Rain = 0
KCL2 230709Z 16017KT 10/10 A2973 RMK A01 T01020102  RH  100%=      5-min Rain = 0
KCL2 230710Z 16016G21KT 10/10 A2973 RMK A01 T01020102  RH  100%=      5-min Rain = 0
KCL2 230711Z 16018KT 10/10 A2974 RMK A01 T01020102  RH  100%=      5-min Rain = 0
KCL2 230712Z 17017G23KT 10/10 A2974 RMK A01 T01020102  RH  100%=      5-min Rain = 0
KCL2 230713Z 16018KT 10/10 A2974 RMK A01 T01020102  RH  100%=      5-min Rain = 0
KCL2 230714Z 17015KT 10/10 A2974 RMK A01 T01030103  RH  100%=      5-min Rain = 0
KCL2 230715Z 17013KT 10/10 A2974 RMK A01 T01020103  RH  100%=      5-min Rain = 0
KCL2 230716Z 17017KT 10/10 A2974 RMK A01 T01020102  RH  100%=      5-min Rain = 0
KCL2 230717Z 17014KT 10/10 A2974 RMK A01 T01030103  RH  100%=      5-min Rain = 0
KCL2 230718Z 17019KT 10/10 A2974 RMK A01 T01020103  RH  100%=      5-min Rain = 0
KCL2 230719Z 17016KT 10/10 A2974 RMK A01 T01030103  RH  100%=      5-min Rain = 0
KCL2 230720Z 17017G22KT 10/10 A2975 RMK A01 T01030103  RH  100%=      5-min Rain = 0
KCL2 230721Z 17016KT 10/10 A2974 RMK A01 T01030103  RH  100%=      5-min Rain = 0
KCL2 230722Z 17017KT 10/10 A2975 RMK A01 T01030103  RH  100%=      5-min Rain = 0
KCL2 230723Z 17018G23KT 10/10 A2974 RMK A01 T01030103  RH  100%=      5-min Rain = 0
KCL2 230724Z 18019KT 10/10 A2975 RMK A01 T01040104  RH  100%=      5-min Rain = 0
KCL2 230725Z 18015KT 10/10 A2975 RMK A01 T01040104  RH  100%=      5-min Rain = 0
KCL2 230726Z 17019G24KT 10/10 A2975 RMK A01 T01040104  RH  100%=      5-min Rain = 0
KCL2 230727Z 17017G23KT 10/10 A2975 RMK A01 T01040104  RH  100%=      5-min Rain = 0
KCL2 230728Z 18014KT 11/11 A2975 RMK A01 T01050105  RH  100%=      5-min Rain = 0
KCL2 230729Z 18016G21KT 11/11 A2975 RMK A01 T01050105  RH  100%=      5-min Rain = 0
KCL2 230730Z 17014KT 11/11 A2975 RMK A01 T01050105  RH  100%=      5-min Rain = 0
KCL2 230731Z 18019G24KT 11/11 A2975 RMK A01 T01050105  RH  100%=      5-min Rain = 0
KCL2 230732Z 18016KT 11/11 A2975 RMK A01 T01060106  RH  100%=      5-min Rain = 0
KCL2 230733Z 18016KT 11/11 A2975 RMK A01 T01060106  RH  100%=      5-min Rain = 0
KCL2 230734Z 18013KT 11/11 A2975 RMK A01 T01060106  RH  100%=      5-min Rain = 0
KCL2 230735Z 18015KT 11/11 A2975 RMK A01 T01060106  RH  100%=      5-min Rain = 0
KCL2 230736Z 17015KT 11/11 A2975 RMK A01 T01070107  RH  100%=      5-min Rain = 0
KCL2 230737Z 17014KT 11/11 A2975 RMK A01 T01070107  RH  100%=      5-min Rain = 0
KCL2 230738Z 17014KT 11/11 A2975 RMK A01 T01080108  RH  100%=      5-min Rain = 0
KCL2 230739Z 18016KT 11/11 A2975 RMK A01 T01080108  RH  100%=      5-min Rain = 0
KCL2 230740Z 17014G19KT 11/11 A2975 RMK A01 T01080108  RH  100%=      5-min Rain = 0
KCL2 230741Z 17015KT 11/11 A2975 RMK A01 T01080108  RH  100%=      5-min Rain = 0
KCL2 230742Z 18013KT 11/11 A2975 RMK A01 T01090109  RH  100%=      5-min Rain = 0
KCL2 230743Z 17014KT 11/11 A2975 RMK A01 T01090109  RH  100%=      5-min Rain = 0
KCL2 230744Z 17014KT 11/11 A2974 RMK A01 T01090109  RH  100%=      5-min Rain = 0
KCL2 230745Z 18013KT 11/11 A2975 RMK A01 T01100110  RH  100%=      5-min Rain = 0
KCL2 230746Z 18014G20KT 11/11 A2975 RMK A01 T01100110  RH  100%=      5-min Rain = 0
KCL2 230747Z 18017KT 11/11 A2974 RMK A01 T01100110  RH  100%=      5-min Rain = 0
KCL2 230748Z 18013KT 11/11 A2974 RMK A01 T01110111  RH  100%=      5-min Rain = 0
KCL2 230749Z 18013G19KT 11/11 A2974 RMK A01 T01110111  RH  100%=      5-min Rain = 0
KCL2 230750Z 17016KT 11/11 A2974 RMK A01 T01110111  RH  100%=      5-min Rain = 0
KCL2 230751Z 17014KT 11/11 A2974 RMK A01 T01110111  RH  100%=      5-min Rain = 0
KCL2 230752Z 17013G19KT 11/11 A2974 RMK A01 T01110112  RH  100%=      5-min Rain = 0
KCL2 230753Z 17018G24KT 11/11 A2974 RMK A01 T01120112  RH  100%=      5-min Rain = 0
KCL2 230754Z 18016KT 11/11 A2974 RMK A01 T01120112  RH  100%=      5-min Rain = 0
KCL2 230755Z 18017KT 11/11 A2974 RMK A01 T01120112  RH  100%=      5-min Rain = 0
KCL2 230756Z 17016KT 11/11 A2974 RMK A01 T01120113  RH  100%=      5-min Rain = 0
KCL2 230757Z 18016G21KT 11/11 A2974 RMK A01 T01130113  RH  100%=      5-min Rain = 0
KCL2 230758Z 18015KT 11/11 A2974 RMK A01 T01130113  RH  100%=      5-min Rain = 0
KCL2 230759Z 18014KT 11/11 A2975 RMK A01 T01130113  RH  100%=      5-min Rain = 0
KCL2 230800Z 19015G23KT 11/11 A2975 RMK A01 T01130113  RH  100%=      5-min Rain = 0
KCL2 230801Z 19014G19KT 11/11 A2975 RMK A01 T01140114  RH  100%=      5-min Rain = 0
KCL2 230802Z 18014G19KT 11/11 A2975 RMK A01 T01140114  RH  100%=      5-min Rain = 0
KCL2 230803Z 19013KT 11/11 A2975 RMK A01 T01140114  RH  100%=      5-min Rain = 0
KCL2 230804Z 18013KT 11/11 A2975 RMK A01 T01140114  RH  100%=      5-min Rain = 0
KCL2 230805Z 19015KT 11/12 A2975 RMK A01 T01140115  RH  100%=      5-min Rain = 0
KCL2 230806Z 18013KT 12/12 A2976 RMK A01 T01150115  RH  100%=      5-min Rain = 0
KCL2 230807Z 18013KT 12/12 A2976 RMK A01 T01150115  RH  100%=      5-min Rain = 0
KCL2 230808Z 19013KT 12/12 A2976 RMK A01 T01150115  RH  100%=      5-min Rain = 0
KCL2 230809Z 18012KT 12/12 A2976 RMK A01 T01150115  RH  100%=      5-min Rain = 0
KCL2 230810Z 19013KT 12/12 A2976 RMK A01 T01150115  RH  100%=      5-min Rain = 0
KCL2 230811Z 19013KT 12/12 A2976 RMK A01 T01150115  RH  100%=      5-min Rain = 0
KCL2 230812Z 19012KT 12/12 A2976 RMK A01 T01150115  RH  100%=      5-min Rain = 0
KCL2 230813Z 19013KT 12/12 A2976 RMK A01 T01150115  RH  100%=      5-min Rain = 0
KCL2 230814Z 19011KT 12/12 A2976 RMK A01 T01160116  RH  100%=      5-min Rain = 0
KCL2 230815Z 18012KT 12/12 A2976 RMK A01 T01160116  RH  100%=      5-min Rain = 0
KCL2 230816Z 18013KT 12/12 A2976 RMK A01 T01160116  RH  100%=      5-min Rain = 0
KCL2 230817Z 18015G20KT 12/12 A2976 RMK A01 T01170117  RH  100%=      5-min Rain = 0
KCL2 230818Z 18013KT 12/12 A2975 RMK A01 T01170117  RH  100%=      5-min Rain = 0
KCL2 230819Z 18012KT 12/12 A2975 RMK A01 T01170117  RH  100%=      5-min Rain = 0
KCL2 230820Z 18012KT 12/12 A2975 RMK A01 T01170117  RH  100%=      5-min Rain = 0
KCL2 230821Z 18014G19KT 12/12 A2975 RMK A01 T01180118  RH  100%=      5-min Rain = 0
KCL2 230822Z 18016KT 12/12 A2976 RMK A01 T01180118  RH  100%=      5-min Rain = 0
KCL2 230823Z 18014KT 12/12 A2976 RMK A01 T01190119  RH  100%=      5-min Rain = 0
KCL2 230824Z 18013KT 12/12 A2976 RMK A01 T01180119  RH  100%=      5-min Rain = 0
KCL2 230825Z 18011G16KT 12/12 A2976 RMK A01 T01190119  RH  100%=      5-min Rain = 0
KCL2 230826Z 17013KT 12/12 A2976 RMK A01 T01190119  RH  100%=      5-min Rain = 0
KCL2 230827Z 18013KT 12/12 A2975 RMK A01 T01190119  RH  100%=      5-min Rain = 0
KCL2 230828Z 18012KT 12/12 A2976 RMK A01 T01190119  RH  100%=      5-min Rain = 0
KCL2 230829Z 18012G17KT 12/12 A2976 RMK A01 T01190119  RH  100%=      5-min Rain = 0
KCL2 230830Z 18014KT 12/12 A2976 RMK A01 T01190119  RH  100%=      5-min Rain = 0
KCL2 230831Z 18011KT 12/12 A2976 RMK A01 T01200120  RH  100%=      5-min Rain = 0
KCL2 230832Z 18014G20KT 12/12 A2976 RMK A01 T01200120  RH  100%=      5-min Rain = 0
KCL2 230833Z 19014KT 12/12 A2976 RMK A01 T01200120  RH  100%=      5-min Rain = 0
KCL2 230834Z 19012KT 12/12 A2977 RMK A01 T01200120  RH  100%=      5-min Rain = 0
KCL2 230835Z 19011KT 12/12 A2977 RMK A01 T01200120  RH  100%=      5-min Rain = 0
KCL2 230836Z 20012KT 12/12 A2978 RMK A01 T01200120  RH  100%=      5-min Rain = 0
KCL2 230837Z 20014KT 12/12 A2978 RMK A01 T01200120  RH  100%=      5-min Rain = 0
KCL2 230838Z 20012KT 12/12 A2978 RMK A01 T01200120  RH  100%=      5-min Rain = 0
KCL2 230839Z 19010KT 12/12 A2978 RMK A01 T01200121  RH  100%=      5-min Rain = 0
KCL2 230840Z 20013KT 12/12 A2978 RMK A01 T01210121  RH  100%=      5-min Rain = 0
KCL2 230841Z 19012KT 12/12 A2978 RMK A01 T01210121  RH  100%=      5-min Rain = 0
KCL2 230842Z 19010KT 12/12 A2978 RMK A01 T01210121  RH  100%=      5-min Rain = 0
KCL2 230843Z 20011KT 12/12 A2978 RMK A01 T01210122  RH  100%=      5-min Rain = 0
KCL2 230844Z 20010KT 12/12 A2978 RMK A01 T01210121  RH  100%=      5-min Rain = 0
KCL2 230845Z 19010KT 12/12 A2978 RMK A01 T01210121  RH  100%=      5-min Rain = 0
KCL2 230846Z 19012KT 12/12 A2978 RMK A01 T01210121  RH  100%=      5-min Rain = 0
KCL2 230847Z 18013KT 12/12 A2977 RMK A01 T01210121  RH  100%=      5-min Rain = 0
KCL2 230848Z 18012KT 12/12 A2977 RMK A01 T01210121  RH  100%=      5-min Rain = 0
KCL2 230849Z 18012KT 12/12 A2977 RMK A01 T01210121  RH  100%=      5-min Rain = 0
KCL2 230850Z 18010KT 12/12 A2977 RMK A01 T01210121  RH  100%=      5-min Rain = 0
KCL2 230851Z 18012KT 12/12 A2977 RMK A01 T01210121  RH  100%=      5-min Rain = 0
KCL2 230852Z 18012KT 12/12 A2977 RMK A01 T01220122  RH  100%=      5-min Rain = 0
KCL2 230853Z 19014KT 12/12 A2977 RMK A01 T01220122  RH  100%=      5-min Rain = 0
KCL2 230854Z 18011KT 12/12 A2977 RMK A01 T01220122  RH  100%=      5-min Rain = 0
KCL2 230855Z 18011G16KT 12/12 A2977 RMK A01 T01220122  RH  100%=      5-min Rain = 0
KCL2 230856Z 18012KT 12/12 A2976 RMK A01 T01220122  RH  100%=      5-min Rain = 0
KCL2 230857Z 18011KT 12/12 A2976 RMK A01 T01220122  RH  100%=      5-min Rain = 0
KCL2 230858Z 18009KT 12/12 A2976 RMK A01 T01220122  RH  100%=      5-min Rain = 0
KCL2 230859Z 18010KT 12/12 A2976 RMK A01 T01210121  RH  100%=      5-min Rain = 0
KCL2 230900Z 19010KT 12/12 A2976 RMK A01 T01210121  RH  100%=      5-min Rain = 0
KCL2 230901Z 19011KT 12/12 A2976 RMK A01 T01210121  RH  100%=      5-min Rain = 0
KCL2 230902Z 19010KT 12/12 A2976 RMK A01 T01210121  RH  100%=      5-min Rain = 0
KCL2 230903Z 18009KT 12/12 A2976 RMK A01 T01210121  RH  100%=      5-min Rain = 0
KCL2 230904Z 18011G17KT 12/12 A2976 RMK A01 T01200120  RH  100%=      5-min Rain = 0
KCL2 230905Z 18012KT 12/12 A2976 RMK A01 T01200120  RH  100%=      5-min Rain = 0
KCL2 230906Z 19015KT 12/12 A2976 RMK A01 T01210121  RH  100%=      5-min Rain = 0
KCL2 230907Z 19011KT 12/12 A2976 RMK A01 T01210121  RH  100%=      5-min Rain = 0
KCL2 230908Z 19009KT 12/12 A2976 RMK A01 T01210121  RH  100%=      5-min Rain = 0
KCL2 230909Z 20010KT 12/12 A2976 RMK A01 T01210121  RH  100%=      5-min Rain = 0
KCL2 230910Z 19012KT 12/12 A2977 RMK A01 T01210121  RH  100%=      5-min Rain = 0
KCL2 230911Z 20013KT 12/12 A2977 RMK A01 T01210121  RH  100%=      5-min Rain = 0
KCL2 230912Z 20010KT 12/12 A2977 RMK A01 T01220122  RH  100%=      5-min Rain = 0
KCL2 230913Z 20010KT 12/12 A2977 RMK A01 T01220122  RH  100%=      5-min Rain = 0
KCL2 230914Z 21012KT 12/12 A2977 RMK A01 T01220122  RH  100%=      5-min Rain = 0
KCL2 230915Z 21011KT 12/12 A2978 RMK A01 T01230123  RH  100%=      5-min Rain = 0
KCL2 230916Z 21011KT 12/12 A2978 RMK A01 T01230123  RH  100%=      5-min Rain = 0
KCL2 230917Z 21013KT 12/12 A2978 RMK A01 T01230123  RH  100%=      5-min Rain = 0
KCL2 230918Z 21012KT 12/12 A2978 RMK A01 T01230123  RH  100%=      5-min Rain = 0
KCL2 230919Z 21012KT 12/12 A2978 RMK A01 T01230123  RH  100%=      5-min Rain = 0
KCL2 230920Z 21011KT 12/12 A2978 RMK A01 T01230123  RH  100%=      5-min Rain = 0
KCL2 230921Z 21011G16KT 12/12 A2978 RMK A01 T01230123  RH  100%=      5-min Rain = 0
KCL2 230922Z 21011KT 12/12 A2978 RMK A01 T01230123  RH  100%=      5-min Rain = 0
KCL2 230923Z 21014G19KT 12/12 A2977 RMK A01 T01230123  RH  100%=      5-min Rain = 0
KCL2 230924Z 21014KT 12/12 A2978 RMK A01 T01220123  RH  100%=      5-min Rain = 0
KCL2 230925Z 22013KT 12/12 A2978 RMK A01 T01230123  RH  100%=      5-min Rain = 0
KCL2 230926Z 21015KT 12/12 A2978 RMK A01 T01230123  RH  100%=      5-min Rain = 0
KCL2 230927Z 22017G22KT 12/12 A2978 RMK A01 T01230123  RH  100%=      5-min Rain = 0
KCL2 230928Z 22018KT 12/12 A2978 RMK A01 T01240124  RH  100%=      5-min Rain = 0
KCL2 230929Z 22016G21KT 13/13 A2978 RMK A01 T01250125  RH  100%=      5-min Rain = 0
KCL2 230930Z 22015KT 13/13 A2978 RMK A01 T01250125  RH  100%=      5-min Rain = 0
KCL2 230931Z 22016KT 13/13 A2978 RMK A01 T01250125  RH  100%=      5-min Rain = 0
KCL2 230932Z 22016KT 13/13 A2978 RMK A01 T01260126  RH  100%=      5-min Rain = 0
KCL2 230933Z 22016KT 13/13 A2978 RMK A01 T01270127  RH  100%=      5-min Rain = 0
KCL2 230934Z 22015G20KT 13/13 A2978 RMK A01 T01270127  RH  100%=      5-min Rain = 0
KCL2 230935Z 22014KT 13/13 A2978 RMK A01 T01270127  RH  100%=      5-min Rain = 0
KCL2 230936Z 22013KT 13/13 A2979 RMK A01 T01270126  RH  099%=      5-min Rain = 0
KCL2 230937Z 23014KT 13/13 A2979 RMK A01 T01270125  RH  099%=      5-min Rain = 0
KCL2 230938Z 22013KT 13/13 A2979 RMK A01 T01270125  RH  099%=      5-min Rain = 0
KCL2 230939Z 23012KT 13/13 A2979 RMK A01 T01270125  RH  098%=      5-min Rain = 0
KCL2 230940Z 23016KT 13/12 A2979 RMK A01 T01270124  RH  098%=      5-min Rain = 0
KCL2 230941Z 22019G24KT 13/12 A2979 RMK A01 T01270123  RH  098%=      5-min Rain = 0
KCL2 230942Z 23016KT 13/12 A2979 RMK A01 T01270123  RH  097%=      5-min Rain = 0
KCL2 230943Z 23013KT 13/12 A2979 RMK A01 T01270122  RH  097%=      5-min Rain = 0
KCL2 230944Z 23016KT 13/12 A2979 RMK A01 T01270121  RH  096%=      5-min Rain = 0
KCL2 230945Z 22017G23KT 13/12 A2979 RMK A01 T01260120  RH  096%=      5-min Rain = 0
KCL2 230946Z 23016KT 13/12 A2979 RMK A01 T01270119  RH  095%=      5-min Rain = 0
KCL2 230947Z 23015KT 13/12 A2979 RMK A01 T01270118  RH  094%=      5-min Rain = 0
KCL2 230948Z 23017KT 13/12 A2979 RMK A01 T01270117  RH  094%=      5-min Rain = 0
KCL2 230949Z 24019KT 13/12 A2979 RMK A01 T01270116  RH  093%=      5-min Rain = 0
KCL2 230950Z 23015KT 13/12 A2979 RMK A01 T01270115  RH  093%=      5-min Rain = 0
KCL2 230951Z 23015G21KT 13/12 A2979 RMK A01 T01270115  RH  092%=      5-min Rain = 0
KCL2 230952Z 23014KT 13/11 A2979 RMK A01 T01260114  RH  092%=      5-min Rain = 0
KCL2 230953Z 23015KT 13/11 A2979 RMK A01 T01250114  RH  093%=      5-min Rain = 0
KCL2 230954Z 23017KT 13/11 A2979 RMK A01 T01250114  RH  093%=      5-min Rain = 0
KCL2 230955Z 23014G19KT 13/11 A298 RMK A01 T01250114  RH  093%=      5-min Rain = 0
KCL2 230956Z 23016KT 12/11 A298 RMK A01 T01240113  RH  093%=      5-min Rain = 0
KCL2 230957Z 23014KT 12/11 A298 RMK A01 T01240113  RH  093%=      5-min Rain = 0
KCL2 230958Z 23014KT 12/11 A298 RMK A01 T01240113  RH  093%=      5-min Rain = 0
KCL2 230959Z 24016KT 12/11 A298 RMK A01 T01230112  RH  093%=      5-min Rain = 0
KCL2 231000Z 24017KT 12/11 A298 RMK A01 T01230111  RH  092%=      5-min Rain = 0
KCL2 231001Z 23014KT 12/11 A298 RMK A01 T01230110  RH  092%=      5-min Rain = 0
KCL2 231002Z 24015KT 12/11 A298 RMK A01 T01230109  RH  091%=      5-min Rain = 0
KCL2 231003Z 24014KT 12/11 A298 RMK A01 T01220108  RH  091%=      5-min Rain = 0
KCL2 231004Z 24013KT 12/11 A298 RMK A01 T01220107  RH  091%=      5-min Rain = 0
KCL2 231005Z 24014KT 12/11 A298 RMK A01 T01210107  RH  091%=      5-min Rain = 0
KCL2 231006Z 23013KT 12/11 A298 RMK A01 T01210107  RH  091%=      5-min Rain = 0
KCL2 231007Z 24014KT 12/11 A298 RMK A01 T01210106  RH  091%=      5-min Rain = 0
KCL2 231008Z 24014G20KT 12/11 A298 RMK A01 T01210106  RH  091%=      5-min Rain = 0
KCL2 231009Z 24016KT 12/10 A298 RMK A01 T01210104  RH  089%=      5-min Rain = 0
KCL2 231010Z 24015KT 12/10 A298 RMK A01 T01210102  RH  088%=      5-min Rain = 0
KCL2 231011Z 25016G21KT 12/10 A298 RMK A01 T01210101  RH  087%=      5-min Rain = 0
KCL2 231012Z 24019KT 12/10 A298 RMK A01 T01200097  RH  086%=      5-min Rain = 0
KCL2 231013Z 24020KT 12/09 A298 RMK A01 T01200093  RH  084%=      5-min Rain = 0
KCL2 231014Z 25019G24KT 12/09 A298 RMK A01 T01210091  RH  082%=      5-min Rain = 0
KCL2 231015Z 25017KT 12/09 A298 RMK A01 T01210089  RH  081%=      5-min Rain = 0
KCL2 231016Z 25018G24KT 12/09 A2981 RMK A01 T01200089  RH  081%=      5-min Rain = 0
KCL2 231017Z 25019KT 12/09 A298 RMK A01 T01180085  RH  080%=      5-min Rain = 0
KCL2 231018Z 25021KT 12/08 A2981 RMK A01 T01180081  RH  078%=      5-min Rain = 0
KCL2 231019Z 25018KT 12/08 A2981 RMK A01 T01180077  RH  076%=      5-min Rain = 0
KCL2 231020Z 25018KT 12/08 A2981 RMK A01 T01170078  RH  077%=      5-min Rain = 0
KCL2 231021Z 25016KT 12/08 A2981 RMK A01 T01160077  RH  077%=      5-min Rain = 0
KCL2 231022Z 25016G21KT 12/08 A2981 RMK A01 T01150076  RH  077%=      5-min Rain = 0
KCL2 231023Z 25016KT 11/08 A2981 RMK A01 T01140075  RH  077%=      5-min Rain = 0
KCL2 231024Z 25018KT 11/07 A2981 RMK A01 T01130073  RH  076%=      5-min Rain = 0
KCL2 231025Z 25016KT 11/07 A2981 RMK A01 T01140072  RH  076%=      5-min Rain = 0
KCL2 231026Z 25018KT 11/07 A2981 RMK A01 T01140071  RH  075%=      5-min Rain = 0
KCL2 231027Z 25014KT 11/07 A2981 RMK A01 T01140070  RH  075%=      5-min Rain = 0
KCL2 231028Z 24012KT 11/07 A2981 RMK A01 T01120070  RH  075%=      5-min Rain = 0
KCL2 231029Z 24016KT 11/07 A2981 RMK A01 T01110069  RH  075%=      5-min Rain = 0
KCL2 231030Z 24014KT 11/07 A2981 RMK A01 T01110067  RH  074%=      5-min Rain = 0
KCL2 231031Z 24014KT 11/07 A2981 RMK A01 T01110068  RH  075%=      5-min Rain = 0
KCL2 231032Z 24013KT 11/07 A2981 RMK A01 T01090067  RH  075%=      5-min Rain = 0
KCL2 231033Z 24014KT 11/06 A2981 RMK A01 T01090064  RH  073%=      5-min Rain = 0
KCL2 231034Z 24014KT 11/06 A2981 RMK A01 T01090063  RH  073%=      5-min Rain = 0
KCL2 231035Z 24015KT 11/06 A2981 RMK A01 T01090060  RH  072%=      5-min Rain = 0
KCL2 231036Z 24013KT 11/06 A2981 RMK A01 T01090060  RH  072%=      5-min Rain = 0
KCL2 231037Z 24012KT 11/06 A2981 RMK A01 T01080060  RH  072%=      5-min Rain = 0
KCL2 231038Z 24012KT 11/06 A2981 RMK A01 T01070060  RH  073%=      5-min Rain = 0
KCL2 231039Z 24012KT 11/06 A2981 RMK A01 T01070059  RH  072%=      5-min Rain = 0
KCL2 231040Z 24012KT 11/06 A2981 RMK A01 T01060058  RH  072%=      5-min Rain = 0
KCL2 231041Z 24012KT 11/06 A2981 RMK A01 T01060056  RH  071%=      5-min Rain = 0
KCL2 231042Z 24012KT 11/06 A2981 RMK A01 T01060055  RH  071%=      5-min Rain = 0
KCL2 231043Z 24011KT 11/06 A2981 RMK A01 T01060057  RH  071%=      5-min Rain = 0
KCL2 231044Z 24012KT 10/06 A2981 RMK A01 T01040057  RH  072%=      5-min Rain = 0
KCL2 231045Z 24011KT 10/05 A2981 RMK A01 T01040054  RH  071%=      5-min Rain = 0
KCL2 231046Z 24011KT 10/06 A2981 RMK A01 T01040055  RH  072%=      5-min Rain = 0
KCL2 231047Z 24010KT 10/06 A2981 RMK A01 T01030055  RH  072%=      5-min Rain = 0
KCL2 231048Z 24011KT 10/05 A2981 RMK A01 T01030054  RH  071%=      5-min Rain = 0
KCL2 231049Z 24011KT 10/06 A2981 RMK A01 T01030055  RH  072%=      5-min Rain = 0
KCL2 231050Z 24010KT 10/05 A2981 RMK A01 T01020053  RH  071%=      5-min Rain = 0
KCL2 231051Z 24010KT 10/05 A2981 RMK A01 T01020053  RH  071%=      5-min Rain = 0
KCL2 231052Z 24010KT 10/05 A2981 RMK A01 T01020053  RH  072%=      5-min Rain = 0
KCL2 231053Z 24011KT 10/05 A2981 RMK A01 T01010053  RH  072%=      5-min Rain = 0
KCL2 231054Z 24010KT 10/05 A2981 RMK A01 T01000052  RH  072%=      5-min Rain = 0
KCL2 231055Z 24010KT 10/05 A2981 RMK A01 T00990052  RH  072%=      5-min Rain = 0
KCL2 231056Z 24011KT 10/05 A2981 RMK A01 T00990052  RH  072%=      5-min Rain = 0
KCL2 231057Z 23010KT 10/05 A2981 RMK A01 T00980050  RH  072%=      5-min Rain = 0
KCL2 231058Z 24011KT 10/05 A2981 RMK A01 T00980050  RH  072%=      5-min Rain = 0
KCL2 231059Z 23011KT 10/05 A2981 RMK A01 T00980050  RH  072%=      5-min Rain = 0
KCL2 231100Z 23011KT 10/05 A2981 RMK A01 T00990050  RH  071%=      5-min Rain = 0
KCL2 231101Z 24010KT 10/05 A2981 RMK A01 T00980049  RH  071%=      5-min Rain = 0
KCL2 231102Z 24013KT 10/05 A2981 RMK A01 T00980048  RH  071%=      5-min Rain = 0
KCL2 231103Z 24011KT 10/05 A2981 RMK A01 T00980047  RH  070%=      5-min Rain = 0
KCL2 231104Z 24012KT 10/05 A2981 RMK A01 T00980046  RH  070%=      5-min Rain = 0
KCL2 231105Z 24012KT 10/05 A2981 RMK A01 T00980046  RH  070%=      5-min Rain = 0
KCL2 231106Z 24013KT 10/05 A2981 RMK A01 T00980045  RH  070%=      5-min Rain = 0
KCL2 231107Z 24012KT 10/04 A2982 RMK A01 T00980044  RH  069%=      5-min Rain = 0
KCL2 231108Z 24012KT 10/04 A2982 RMK A01 T00980041  RH  068%=      5-min Rain = 0
KCL2 231109Z 24014KT 10/04 A2982 RMK A01 T00990040  RH  067%=      5-min Rain = 0
KCL2 231110Z 23014KT 10/04 A2982 RMK A01 T00990039  RH  066%=      5-min Rain = 0
KCL2 231111Z 24013KT 10/04 A2982 RMK A01 T00990039  RH  066%=      5-min Rain = 0
KCL2 231112Z 24013G18KT 10/04 A2982 RMK A01 T00970038  RH  067%=      5-min Rain = 0
KCL2 231113Z 24014KT 10/04 A2982 RMK A01 T00970035  RH  065%=      5-min Rain = 0
KCL2 231114Z 24015KT 10/03 A2981 RMK A01 T00970034  RH  065%=      5-min Rain = 0
KCL2 231115Z 24014KT 10/03 A2981 RMK A01 T00970033  RH  064%=      5-min Rain = 0
KCL2 231116Z 24014KT 10/03 A2981 RMK A01 T00970032  RH  064%=      5-min Rain = 0
KCL2 231117Z 25014KT 10/03 A2981 RMK A01 T00980031  RH  063%=      5-min Rain = 0
KCL2 231118Z 25014KT 10/03 A2981 RMK A01 T00970030  RH  063%=      5-min Rain = 0
KCL2 231119Z 25015KT 10/03 A2981 RMK A01 T00960030  RH  063%=      5-min Rain = 0
KCL2 231120Z 25013KT 10/03 A2981 RMK A01 T00950029  RH  063%=      5-min Rain = 0
KCL2 231121Z 25015KT 10/03 A2982 RMK A01 T00950028  RH  063%=      5-min Rain = 0
KCL2 231122Z 25015KT 10/03 A2981 RMK A01 T00950026  RH  062%=      5-min Rain = 0
KCL2 231123Z 25015KT 10/02 A2982 RMK A01 T00960024  RH  061%=      5-min Rain = 0
KCL2 231124Z 25015KT 10/02 A2981 RMK A01 T00960023  RH  060%=      5-min Rain = 0
KCL2 231125Z 25014KT 10/02 A2981 RMK A01 T00960024  RH  061%=      5-min Rain = 0
KCL2 231126Z 25017KT 10/02 A2981 RMK A01 T00960021  RH  060%=      5-min Rain = 0
KCL2 231127Z 25016KT 10/02 A2981 RMK A01 T00960019  RH  059%=      5-min Rain = 0
KCL2 231128Z 25014KT 10/02 A2981 RMK A01 T00970020  RH  059%=      5-min Rain = 0
KCL2 231129Z 25012KT 10/02 A2981 RMK A01 T00960020  RH  059%=      5-min Rain = 0
KCL2 231130Z 25015KT 10/02 A2981 RMK A01 T00950019  RH  059%=      5-min Rain = 0
KCL2 231131Z 25014KT 10/02 A2981 RMK A01 T00950018  RH  058%=      5-min Rain = 0
KCL2 231132Z 25013KT 09/02 A2981 RMK A01 T00940018  RH  059%=      5-min Rain = 0
KCL2 231133Z 25014KT 09/02 A2981 RMK A01 T00930017  RH  059%=      5-min Rain = 0
KCL2 231134Z 25014KT 09/01 A2981 RMK A01 T00940014  RH  057%=      5-min Rain = 0
KCL2 231135Z 24015KT 10/01 A2982 RMK A01 T00950012  RH  056%=      5-min Rain = 0
KCL2 231136Z 24014KT 10/01 A2981 RMK A01 T00960011  RH  056%=      5-min Rain = 0
KCL2 231137Z 24012KT 10/01 A2981 RMK A01 T00960010  RH  055%=      5-min Rain = 0
KCL2 231138Z 24016G21KT 10/01 A2981 RMK A01 T00950009  RH  055%=      5-min Rain = 0
KCL2 231139Z 25014KT 10/01 A2982 RMK A01 T00960007  RH  054%=      5-min Rain = 0
KCL2 231140Z 24014G19KT 10/01 A2982 RMK A01 T00960008  RH  054%=      5-min Rain = 0
KCL2 231141Z 25012KT 10/01 A2982 RMK A01 T00960008  RH  054%=      5-min Rain = 0
KCL2 231142Z 25014KT 10/01 A2982 RMK A01 T00950007  RH  054%=      5-min Rain = 0
KCL2 231143Z 25013KT 09/01 A2982 RMK A01 T00940005  RH  054%=      5-min Rain = 0
KCL2 231144Z 25013KT 09/00 A2982 RMK A01 T00940002  RH  053%=      5-min Rain = 0
KCL2 231145Z 25014KT 10/00 A2982 RMK A01 T00950001  RH  052%=      5-min Rain = 0
KCL2 231146Z 25013KT 09/00 A2982 RMK A01 T00940002  RH  053%=      5-min Rain = 0
KCL2 231147Z 25013KT 09/M00 A2982 RMK A01 T00931001  RH  052%=      5-min Rain = 0
KCL2 231148Z 25011KT 09/00 A2982 RMK A01 T00920000  RH  053%=      5-min Rain = 0
KCL2 231149Z 25014G22KT 09/00 A2982 RMK A01 T00900001  RH  054%=      5-min Rain = 0
KCL2 231150Z 25020KT 09/M01 A2982 RMK A01 T00901007  RH  051%=      5-min Rain = 0
KCL2 231151Z 25017G23KT 09/M01 A2982 RMK A01 T00941012  RH  048%=      5-min Rain = 0
KCL2 231152Z 25017G22KT 10/M02 A2982 RMK A01 T00951015  RH  046%=      5-min Rain = 0
KCL2 231153Z 25022G27KT 10/M02 A2982 RMK A01 T00961020  RH  044%=      5-min Rain = 0
KCL2 231154Z 25020KT 10/M02 A2982 RMK A01 T00971024  RH  042%=      5-min Rain = 0
KCL2 231155Z 25026KT 10/M03 A2982 RMK A01 T00981027  RH  041%=      5-min Rain = 0
KCL2 231156Z 25020KT 10/M03 A2983 RMK A01 T00991030  RH  040%=      5-min Rain = 0
KCL2 231157Z 26021KT 10/M03 A2983 RMK A01 T00991028  RH  041%=      5-min Rain = 0
KCL2 231158Z 26019KT 10/M03 A2983 RMK A01 T00971028  RH  041%=      5-min Rain = 0
KCL2 231159Z 26018G23KT 10/M03 A2983 RMK A01 T00961029  RH  041%=      5-min Rain = 0
KCL2 231200Z 26022G28KT 10/M03 A2983 RMK A01 T00951031  RH  041%=      5-min Rain = 0
KCL2 231201Z 26020G26KT 10/M04 A2983 RMK A01 T00961036  RH  039%=      5-min Rain = 0
KCL2 231202Z 26018KT 10/M03 A2983 RMK A01 T00961034  RH  040%=      5-min Rain = 0
KCL2 231203Z 26016G21KT 10/M03 A2983 RMK A01 T00951034  RH  040%=      5-min Rain = 0
KCL2 231204Z 26017G26KT 09/M03 A2983 RMK A01 T00931032  RH  041%=      5-min Rain = 0
KCL2 231205Z 27024KT 09/M04 A2983 RMK A01 T00931037  RH  040%=      5-min Rain = 0
KCL2 231206Z 27019G25KT 10/M04 A2983 RMK A01 T00951040  RH  038%=      5-min Rain = 0
KCL2 231207Z 26017KT 10/M04 A2984 RMK A01 T00961037  RH  039%=      5-min Rain = 0
KCL2 231208Z 26019KT 09/M04 A2983 RMK A01 T00941037  RH  040%=      5-min Rain = 0
KCL2 231209Z 26017KT 09/M04 A2984 RMK A01 T00941037  RH  040%=      5-min Rain = 0
KCL2 231210Z 26021KT 09/M04 A2984 RMK A01 T00931037  RH  040%=      5-min Rain = 0
KCL2 231211Z 26018KT 09/M04 A2984 RMK A01 T00931039  RH  039%=      5-min Rain = 0
KCL2 231212Z 26015KT 09/M04 A2984 RMK A01 T00931037  RH  040%=      5-min Rain = 0
KCL2 231213Z 26018KT 09/M04 A2984 RMK A01 T00911035  RH  041%=      5-min Rain = 0
KCL2 231214Z 26019G25KT 09/M04 A2984 RMK A01 T00911038  RH  040%=      5-min Rain = 0
KCL2 231215Z 26021KT 09/M04 A2984 RMK A01 T00921039  RH  039%=      5-min Rain = 0
KCL2 231216Z 26017KT 09/M04 A2984 RMK A01 T00931038  RH  040%=      5-min Rain = 0
KCL2 231217Z 25014KT 09/M04 A2984 RMK A01 T00911036  RH  041%=      5-min Rain = 0
KCL2 231218Z 25017G22KT 09/M04 A2984 RMK A01 T00901036  RH  041%=      5-min Rain = 0
KCL2 231219Z 25018KT 09/M04 A2984 RMK A01 T00891036  RH  041%=      5-min Rain = 0
KCL2 231220Z 26020G26KT 09/M04 A2984 RMK A01 T00901036  RH  041%=      5-min Rain = 0
KCL2 231221Z 26020G27KT 09/M04 A2984 RMK A01 T00911037  RH  040%=      5-min Rain = 0
KCL2 231222Z 26017KT 09/M04 A2984 RMK A01 T00911035  RH  041%=      5-min Rain = 0
KCL2 231223Z 26018KT 09/M03 A2984 RMK A01 T00901034  RH  041%=      5-min Rain = 0
KCL2 231224Z 26018G24KT 09/M04 A2984 RMK A01 T00891035  RH  041%=      5-min Rain = 0
KCL2 231225Z 26017KT 09/M04 A2984 RMK A01 T00891035  RH  042%=      5-min Rain = 0
KCL2 231226Z 26016KT 09/M03 A2984 RMK A01 T00881033  RH  042%=      5-min Rain = 0
KCL2 231227Z 25020G26KT 09/M03 A2984 RMK A01 T00871033  RH  042%=      5-min Rain = 0
KCL2 231228Z 26017G25KT 09/M04 A2984 RMK A01 T00871035  RH  042%=      5-min Rain = 0
KCL2 231229Z 26019G24KT 09/M04 A2984 RMK A01 T00881035  RH  042%=      5-min Rain = 0
KCL2 231230Z 26017KT 09/M04 A2984 RMK A01 T00881035  RH  042%=      5-min Rain = 0
KCL2 231231Z 26019G24KT 09/M03 A2984 RMK A01 T00871033  RH  042%=      5-min Rain = 0
KCL2 231232Z 25026G33KT 09/M04 A2984 RMK A01 T00871036  RH  042%=      5-min Rain = 0
KCL2 231233Z 26022G29KT 09/M04 A2984 RMK A01 T00891038  RH  041%=      5-min Rain = 0
KCL2 231234Z 26017KT 09/M04 A2984 RMK A01 T00891035  RH  041%=      5-min Rain = 0
KCL2 231235Z 26016KT 09/M03 A2984 RMK A01 T00871033  RH  043%=      5-min Rain = 0
KCL2 231236Z 25023G30KT 09/M03 A2983 RMK A01 T00851033  RH  043%=      5-min Rain = 0
KCL2 231237Z 26021G27KT 09/M04 A2983 RMK A01 T00861035  RH  042%=      5-min Rain = 0
KCL2 231238Z 26021KT 09/M03 A2983 RMK A01 T00861034  RH  043%=      5-min Rain = 0
KCL2 231239Z 26017G22KT 09/M03 A2984 RMK A01 T00861034  RH  043%=      5-min Rain = 0
KCL2 231240Z 26017G25KT 09/M03 A2984 RMK A01 T00851033  RH  043%=      5-min Rain = 0
KCL2 231241Z 26020G25KT 08/M03 A2984 RMK A01 T00841034  RH  043%=      5-min Rain = 0
KCL2 231242Z 26017KT 08/M03 A2984 RMK A01 T00841033  RH  044%=      5-min Rain = 0
KCL2 231243Z 26017KT 08/M03 A2984 RMK A01 T00841032  RH  044%=      5-min Rain = 0
KCL2 231244Z 26017G22KT 08/M03 A2984 RMK A01 T00831033  RH  044%=      5-min Rain = 0
KCL2 231245Z 26016KT 08/M03 A2984 RMK A01 T00831033  RH  044%=      5-min Rain = 0
KCL2 231246Z 26018G24KT 08/M03 A2984 RMK A01 T00821033  RH  044%=      5-min Rain = 0
KCL2 231247Z 26022G29KT 08/M03 A2984 RMK A01 T00821034  RH  044%=      5-min Rain = 0
KCL2 231248Z 26020KT 08/M03 A2984 RMK A01 T00841034  RH  043%=      5-min Rain = 0
KCL2 231249Z 26019G24KT 08/M03 A2985 RMK A01 T00841033  RH  044%=      5-min Rain = 0
KCL2 231250Z 26018KT 08/M03 A2984 RMK A01 T00831033  RH  044%=      5-min Rain = 0
KCL2 231251Z 26019G25KT 08/M03 A2984 RMK A01 T00821031  RH  045%=      5-min Rain = 0
KCL2 231252Z 26022G28KT 08/M03 A2984 RMK A01 T00821034  RH  044%=      5-min Rain = 0
KCL2 231253Z 25020KT 08/M03 A2984 RMK A01 T00831034  RH  044%=      5-min Rain = 0
KCL2 231254Z 26019KT 08/M03 A2984 RMK A01 T00831033  RH  044%=      5-min Rain = 0
KCL2 231255Z 25016KT 08/M03 A2985 RMK A01 T00831032  RH  044%=      5-min Rain = 0
KCL2 231256Z 25018KT 08/M03 A2985 RMK A01 T00811031  RH  045%=      5-min Rain = 0
KCL2 231257Z 26016KT 08/M03 A2985 RMK A01 T00811031  RH  045%=      5-min Rain = 0
KCL2 231258Z 25019G24KT 08/M03 A2984 RMK A01 T00801031  RH  045%=      5-min Rain = 0
KCL2 231259Z 26019KT 08/M03 A2984 RMK A01 T00801032  RH  045%=      5-min Rain = 0
KCL2 231300Z 26018KT 08/M03 A2985 RMK A01 T00811032  RH  045%=      5-min Rain = 0
KCL2 231301Z 26016KT 08/M03 A2984 RMK A01 T00811032  RH  045%=      5-min Rain = 0
KCL2 231302Z 26019G26KT 08/M03 A2984 RMK A01 T00791032  RH  045%=      5-min Rain = 0
KCL2 231303Z 25018G23KT 08/M03 A2984 RMK A01 T00801033  RH  045%=      5-min Rain = 0
KCL2 231304Z 25020KT 08/M03 A2984 RMK A01 T00801032  RH  045%=      5-min Rain = 0
KCL2 231305Z 25018KT 08/M03 A2984 RMK A01 T00801033  RH  045%=      5-min Rain = 0
KCL2 231306Z 26015G20KT 08/M03 A2985 RMK A01 T00801032  RH  045%=      5-min Rain = 0
KCL2 231307Z 25016KT 08/M03 A2985 RMK A01 T00781031  RH  046%=      5-min Rain = 0
KCL2 231308Z 25018G23KT 08/M03 A2985 RMK A01 T00771031  RH  046%=      5-min Rain = 0
KCL2 231309Z 25019KT 08/M03 A2985 RMK A01 T00771032  RH  046%=      5-min Rain = 0
KCL2 231310Z 26019G24KT 08/M03 A2984 RMK A01 T00781033  RH  045%=      5-min Rain = 0
KCL2 231311Z 26022G27KT 08/M03 A2984 RMK A01 T00791034  RH  045%=      5-min Rain = 0
KCL2 231312Z 26022G27KT 08/M04 A2984 RMK A01 T00801035  RH  044%=      5-min Rain = 0
KCL2 231313Z 26022G27KT 08/M04 A2984 RMK A01 T00801037  RH  043%=      5-min Rain = 0
KCL2 231314Z 26018KT 08/M04 A2985 RMK A01 T00821036  RH  043%=      5-min Rain = 0
KCL2 231315Z 26021G27KT 08/M04 A2985 RMK A01 T00811036  RH  043%=      5-min Rain = 0
KCL2 231316Z 26019KT 08/M04 A2985 RMK A01 T00811037  RH  043%=      5-min Rain = 0
KCL2 231317Z 26017G22KT 08/M04 A2985 RMK A01 T00811036  RH  043%=      5-min Rain = 0
KCL2 231318Z 27015G22KT 08/M04 A2985 RMK A01 T00791036  RH  044%=      5-min Rain = 0
KCL2 231319Z 26018G25KT 08/M04 A2985 RMK A01 T00771037  RH  044%=      5-min Rain = 0
KCL2 231320Z 27018G23KT 08/M04 A2985 RMK A01 T00781039  RH  043%=      5-min Rain = 0
KCL2 231321Z 27014G19KT 08/M04 A2986 RMK A01 T00781038  RH  044%=      5-min Rain = 0
KCL2 231322Z 27015KT 08/M04 A2986 RMK A01 T00771038  RH  044%=      5-min Rain = 0
KCL2 231323Z 27018G25KT 08/M04 A2986 RMK A01 T00771040  RH  043%=      5-min Rain = 0
KCL2 231324Z 27017KT 08/M04 A2986 RMK A01 T00771041  RH  043%=      5-min Rain = 0
KCL2 231325Z 26018KT 08/M04 A2985 RMK A01 T00771040  RH  043%=      5-min Rain = 0
KCL2 231326Z 26017KT 08/M04 A2985 RMK A01 T00781042  RH  042%=      5-min Rain = 0
KCL2 231327Z 27015KT 08/M04 A2985 RMK A01 T00781041  RH  042%=      5-min Rain = 0
KCL2 231328Z 27018KT 08/M04 A2985 RMK A01 T00771043  RH  042%=      5-min Rain = 0
KCL2 231329Z 27020G26KT 08/M05 A2985 RMK A01 T00781045  RH  042%=      5-min Rain = 0
KCL2 231330Z 26021KT 08/M05 A2985 RMK A01 T00791045  RH  041%=      5-min Rain = 0
KCL2 231331Z 27021KT 08/M05 A2985 RMK A01 T00801047  RH  040%=      5-min Rain = 0
KCL2 231332Z 27019KT 08/M05 A2985 RMK A01 T00801046  RH  041%=      5-min Rain = 0
KCL2 231333Z 27023G29KT 08/M05 A2985 RMK A01 T00801047  RH  040%=      5-min Rain = 0
KCL2 231334Z 27020G27KT 08/M05 A2986 RMK A01 T00811048  RH  040%=      5-min Rain = 0
KCL2 231335Z 27022G27KT 08/M05 A2986 RMK A01 T00811048  RH  040%=      5-min Rain = 0
KCL2 231336Z 27020G26KT 08/M05 A2986 RMK A01 T00821048  RH  039%=      5-min Rain = 0
KCL2 231337Z 27017KT 08/M05 A2986 RMK A01 T00821049  RH  039%=      5-min Rain = 0
KCL2 231338Z 26014G20KT 08/M05 A2986 RMK A01 T00821047  RH  040%=      5-min Rain = 0
KCL2 231339Z 26015G20KT 08/M05 A2986 RMK A01 T00811046  RH  040%=      5-min Rain = 0
KCL2 231340Z 27018G23KT 08/M05 A2986 RMK A01 T00801047  RH  040%=      5-min Rain = 0
KCL2 231341Z 27016KT 08/M05 A2986 RMK A01 T00801048  RH  040%=      5-min Rain = 0
KCL2 231342Z 26018G23KT 08/M05 A2986 RMK A01 T00811047  RH  040%=      5-min Rain = 0
KCL2 231343Z 27016G21KT 08/M05 A2986 RMK A01 T00811047  RH  040%=      5-min Rain = 0
KCL2 231344Z 26019G24KT 08/M05 A2986 RMK A01 T00811046  RH  040%=      5-min Rain = 0
KCL2 231345Z 27019G24KT 08/M05 A2986 RMK A01 T00811048  RH  040%=      5-min Rain = 0
KCL2 231346Z 27019KT 08/M05 A2986 RMK A01 T00821048  RH  039%=      5-min Rain = 0
KCL2 231347Z 26020G27KT 08/M05 A2986 RMK A01 T00821047  RH  040%=      5-min Rain = 0
KCL2 231348Z 26020G25KT 08/M05 A2986 RMK A01 T00821048  RH  039%=      5-min Rain = 0
KCL2 231349Z 26018G25KT 08/M05 A2986 RMK A01 T00831048  RH  039%=      5-min Rain = 0
KCL2 231350Z 26018G23KT 08/M05 A2987 RMK A01 T00831046  RH  040%=      5-min Rain = 0
KCL2 231351Z 26018KT 08/M05 A2987 RMK A01 T00831046  RH  040%=      5-min Rain = 0
KCL2 231352Z 26022G28KT 08/M05 A2987 RMK A01 T00831046  RH  040%=      5-min Rain = 0
KCL2 231353Z 26023KT 08/M05 A2987 RMK A01 T00831048  RH  039%=      5-min Rain = 0
KCL2 231354Z 27019KT 08/M05 A2987 RMK A01 T00841047  RH  039%=      5-min Rain = 0
KCL2 231355Z 26016G21KT 08/M05 A2987 RMK A01 T00841045  RH  040%=      5-min Rain = 0
KCL2 231356Z 26017KT 08/M04 A2987 RMK A01 T00831043  RH  040%=      5-min Rain = 0
KCL2 231357Z 26017G22KT 08/M05 A2987 RMK A01 T00831045  RH  040%=      5-min Rain = 0
KCL2 231358Z 26020KT 08/M05 A2987 RMK A01 T00831045  RH  040%=      5-min Rain = 0
KCL2 231359Z 27019G24KT 08/M05 A2987 RMK A01 T00831045  RH  040%=      5-min Rain = 0
KCL2 231400Z 27015G23KT 08/M04 A2987 RMK A01 T00831044  RH  040%=      5-min Rain = 0
KCL2 231401Z 26017KT 08/M04 A2987 RMK A01 T00831043  RH  041%=      5-min Rain = 0
KCL2 231402Z 26019G25KT 08/M04 A2987 RMK A01 T00831044  RH  040%=      5-min Rain = 0
KCL2 231403Z 26015KT 08/M04 A2987 RMK A01 T00841043  RH  040%=      5-min Rain = 0
KCL2 231404Z 26015KT 08/M04 A2987 RMK A01 T00841043  RH  040%=      5-min Rain = 0
KCL2 231405Z 26017KT 08/M04 A2987 RMK A01 T00831043  RH  041%=      5-min Rain = 0
KCL2 231406Z 26015KT 08/M04 A2987 RMK A01 T00841043  RH  041%=      5-min Rain = 0
KCL2 231407Z 26015KT 08/M04 A2987 RMK A01 T00841042  RH  041%=      5-min Rain = 0
KCL2 231408Z 26012KT 08/M04 A2987 RMK A01 T00841041  RH  041%=      5-min Rain = 0
KCL2 231409Z 25014G19KT 08/M04 A2987 RMK A01 T00841041  RH  041%=      5-min Rain = 0
KCL2 231410Z 25017G22KT 08/M04 A2987 RMK A01 T00841041  RH  041%=      5-min Rain = 0
KCL2 231411Z 25016KT 08/M04 A2987 RMK A01 T00841041  RH  041%=      5-min Rain = 0
KCL2 231412Z 25019KT 08/M04 A2987 RMK A01 T00841041  RH  041%=      5-min Rain = 0
KCL2 231413Z 26021G29KT 09/M04 A2987 RMK A01 T00851043  RH  040%=      5-min Rain = 0
KCL2 231414Z 26017G25KT 09/M04 A2987 RMK A01 T00851044  RH  040%=      5-min Rain = 0
KCL2 231415Z 25017KT 09/M04 A2987 RMK A01 T00861041  RH  041%=      5-min Rain = 0
KCL2 231416Z 25021KT 09/M04 A2987 RMK A01 T00851042  RH  040%=      5-min Rain = 0
KCL2 231417Z 26018KT 09/M04 A2987 RMK A01 T00861043  RH  040%=      5-min Rain = 0
KCL2 231418Z 25016KT 09/M04 A2987 RMK A01 T00861041  RH  041%=      5-min Rain = 0
KCL2 231419Z 25017KT 09/M04 A2987 RMK A01 T00861040  RH  041%=      5-min Rain = 0
KCL2 231420Z 26019KT 09/M04 A2987 RMK A01 T00861040  RH  041%=      5-min Rain = 0
KCL2 231421Z 26017G22KT 09/M04 A2987 RMK A01 T00861042  RH  040%=      5-min Rain = 0
KCL2 231422Z 26017G23KT 09/M04 A2987 RMK A01 T00861040  RH  041%=      5-min Rain = 0
KCL2 231423Z 26015G20KT 09/M04 A2987 RMK A01 T00871040  RH  041%=      5-min Rain = 0
KCL2 231424Z 25019G25KT 09/M04 A2987 RMK A01 T00871039  RH  041%=      5-min Rain = 0
KCL2 231425Z 25020G26KT 09/M04 A2987 RMK A01 T00871042  RH  040%=      5-min Rain = 0
KCL2 231426Z 25019KT 09/M04 A2987 RMK A01 T00871042  RH  040%=      5-min Rain = 0
KCL2 231427Z 25018G23KT 09/M04 A2987 RMK A01 T00871042  RH  040%=      5-min Rain = 0
KCL2 231428Z 25018KT 09/M04 A2988 RMK A01 T00871041  RH  040%=      5-min Rain = 0
KCL2 231429Z 25017KT 09/M04 A2988 RMK A01 T00871040  RH  040%=      5-min Rain = 0
KCL2 231430Z 25016KT 09/M04 A2988 RMK A01 T00881040  RH  040%=      5-min Rain = 0
KCL2 231431Z 26016KT 09/M04 A2988 RMK A01 T00881039  RH  041%=      5-min Rain = 0
KCL2 231432Z 25015KT 09/M04 A2988 RMK A01 T00891039  RH  040%=      5-min Rain = 0
KCL2 231433Z 25016KT 09/M04 A2988 RMK A01 T00891039  RH  040%=      5-min Rain = 0
KCL2 231434Z 25016KT 09/M04 A2988 RMK A01 T00891038  RH  041%=      5-min Rain = 0
KCL2 231435Z 25016KT 09/M04 A2988 RMK A01 T00891039  RH  040%=      5-min Rain = 0
KCL2 231436Z 25021G26KT 09/M04 A2988 RMK A01 T00901040  RH  040%=      5-min Rain = 0
KCL2 231437Z 25019G25KT 09/M04 A2988 RMK A01 T00901041  RH  039%=      5-min Rain = 0
KCL2 231438Z 25017G22KT 09/M04 A2988 RMK A01 T00901041  RH  040%=      5-min Rain = 0
KCL2 231439Z 25020KT 09/M04 A2989 RMK A01 T00901040  RH  040%=      5-min Rain = 0
KCL2 231440Z 25018G23KT 09/M04 A2989 RMK A01 T00901041  RH  039%=      5-min Rain = 0
KCL2 231441Z 25017KT 09/M04 A2989 RMK A01 T00901040  RH  039%=      5-min Rain = 0
KCL2 231442Z 25016KT 09/M04 A2989 RMK A01 T00911039  RH  040%=      5-min Rain = 0
KCL2 231443Z 25015G22KT 09/M04 A2989 RMK A01 T00911038  RH  040%=      5-min Rain = 0
KCL2 231444Z 25018KT 09/M04 A2988 RMK A01 T00921039  RH  039%=      5-min Rain = 0
KCL2 231445Z 25020KT 09/M04 A2988 RMK A01 T00921039  RH  039%=      5-min Rain = 0
KCL2 231446Z 25014KT 09/M04 A2988 RMK A01 T00921039  RH  039%=      5-min Rain = 0
KCL2 231447Z 26016G21KT 09/M04 A2988 RMK A01 T00931037  RH  040%=      5-min Rain = 0
KCL2 231448Z 25015G21KT 09/M04 A2988 RMK A01 T00941036  RH  040%=      5-min Rain = 0
KCL2 231449Z 25019KT 09/M04 A2988 RMK A01 T00941038  RH  039%=      5-min Rain = 0
KCL2 231450Z 25018KT 09/M04 A2988 RMK A01 T00941040  RH  039%=      5-min Rain = 0
KCL2 231451Z 25017KT 09/M04 A2988 RMK A01 T00941040  RH  039%=      5-min Rain = 0
KCL2 231452Z 25017KT 09/M04 A2988 RMK A01 T00941039  RH  039%=      5-min Rain = 0
KCL2 231453Z 25021G26KT 09/M04 A2988 RMK A01 T00941039  RH  039%=      5-min Rain = 0
KCL2 231454Z 25021KT 10/M04 A2988 RMK A01 T00951042  RH  038%=      5-min Rain = 0
KCL2 231455Z 25020KT 10/M04 A2988 RMK A01 T00951042  RH  038%=      5-min Rain = 0
KCL2 231456Z 25018G24KT 10/M04 A2988 RMK A01 T00951040  RH  038%=      5-min Rain = 0
KCL2 231457Z 25021KT 10/M04 A2988 RMK A01 T00961040  RH  038%=      5-min Rain = 0
KCL2 231458Z 25020G27KT 10/M04 A2988 RMK A01 T00961042  RH  038%=      5-min Rain = 0
KCL2 231459Z 26019G24KT 10/M04 A2988 RMK A01 T00951041  RH  038%=      5-min Rain = 0
KCL2 231500Z 25018G23KT 10/M04 A2988 RMK A01 T00961040  RH  038%=      5-min Rain = 0
KCL2 231501Z 25020KT 10/M04 A2988 RMK A01 T00971040  RH  038%=      5-min Rain = 0
KCL2 231502Z 25017G24KT 10/M04 A2988 RMK A01 T00961041  RH  038%=      5-min Rain = 0
KCL2 231503Z 25019KT 10/M04 A2988 RMK A01 T00971040  RH  038%=      5-min Rain = 0
KCL2 231504Z 25020G25KT 10/M04 A2988 RMK A01 T00971040  RH  038%=      5-min Rain = 0
KCL2 231505Z 25020G27KT 10/M04 A2988 RMK A01 T00971040  RH  038%=      5-min Rain = 0
KCL2 231506Z 25020KT 10/M04 A2988 RMK A01 T00981041  RH  037%=      5-min Rain = 0
KCL2 231507Z 25018KT 10/M04 A2988 RMK A01 T00971042  RH  037%=      5-min Rain = 0
KCL2 231508Z 25021G27KT 10/M04 A2988 RMK A01 T00971041  RH  037%=      5-min Rain = 0
KCL2 231509Z 25024KT 10/M04 A2988 RMK A01 T00981042  RH  037%=      5-min Rain = 0
KCL2 231510Z 25021KT 10/M04 A2988 RMK A01 T00971043  RH  037%=      5-min Rain = 0
KCL2 231511Z 26020G25KT 10/M04 A2988 RMK A01 T00981040  RH  038%=      5-min Rain = 0
KCL2 231512Z 26020KT 10/M04 A2989 RMK A01 T00991041  RH  037%=      5-min Rain = 0
KCL2 231513Z 26021KT 10/M04 A2989 RMK A01 T00991040  RH  037%=      5-min Rain = 0
KCL2 231514Z 26019G24KT 10/M04 A2989 RMK A01 T00991041  RH  037%=      5-min Rain = 0
KCL2 231515Z 26024KT 10/M04 A2989 RMK A01 T01001041  RH  037%=      5-min Rain = 0
KCL2 231516Z 26021G26KT 10/M04 A2989 RMK A01 T01001042  RH  037%=      5-min Rain = 0
KCL2 231517Z 26022G27KT 10/M04 A2989 RMK A01 T01001042  RH  037%=      5-min Rain = 0
KCL2 231518Z 25021KT 10/M04 A2989 RMK A01 T01001042  RH  037%=      5-min Rain = 0
KCL2 231519Z 26015G20KT 10/M04 A2989 RMK A01 T01001039  RH  037%=      5-min Rain = 0
KCL2 231520Z 25021KT 10/M04 A2988 RMK A01 T01021037  RH  037%=      5-min Rain = 0
KCL2 231521Z 25022G27KT 10/M04 A2988 RMK A01 T01021040  RH  036%=      5-min Rain = 0
KCL2 231522Z 26023KT 10/M04 A2988 RMK A01 T01021042  RH  036%=      5-min Rain = 0
KCL2 231523Z 26020G25KT 10/M04 A2989 RMK A01 T01011041  RH  037%=      5-min Rain = 0
KCL2 231524Z 26022G27KT 10/M04 A2988 RMK A01 T01021041  RH  036%=      5-min Rain = 0
KCL2 231525Z 26019G24KT 10/M04 A2988 RMK A01 T01021043  RH  036%=      5-min Rain = 0
KCL2 231526Z 26019KT 10/M04 A2989 RMK A01 T01031040  RH  036%=      5-min Rain = 0
KCL2 231527Z 26017KT 10/M04 A2989 RMK A01 T01041039  RH  036%=      5-min Rain = 0
KCL2 231528Z 25019KT 10/M04 A2989 RMK A01 T01041038  RH  037%=      5-min Rain = 0
KCL2 231529Z 25022KT 11/M04 A2989 RMK A01 T01051039  RH  036%=      5-min Rain = 0
KCL2 231530Z 26019KT 11/M04 A2989 RMK A01 T01051037  RH  037%=      5-min Rain = 0
KCL2 231531Z 25019G24KT 11/M04 A2989 RMK A01 T01061039  RH  036%=      5-min Rain = 0
KCL2 231532Z 26019G25KT 11/M04 A2989 RMK A01 T01061040  RH  036%=      5-min Rain = 0
KCL2 231533Z 25018G24KT 11/M04 A2989 RMK A01 T01061038  RH  036%=      5-min Rain = 0
KCL2 231534Z 25021KT 11/M04 A2988 RMK A01 T01071040  RH  035%=      5-min Rain = 0
KCL2 231535Z 26022G27KT 11/M04 A2989 RMK A01 T01061041  RH  035%=      5-min Rain = 0
KCL2 231536Z 26022KT 11/M04 A2988 RMK A01 T01061044  RH  035%=      5-min Rain = 0
KCL2 231537Z 25020KT 11/M04 A2988 RMK A01 T01061041  RH  035%=      5-min Rain = 0
KCL2 231538Z 25024G29KT 11/M04 A2988 RMK A01 T01071042  RH  035%=      5-min Rain = 0
KCL2 231539Z 25024KT 11/M04 A2988 RMK A01 T01071043  RH  035%=      5-min Rain = 0
KCL2 231540Z 26022G27KT 11/M04 A2989 RMK A01 T01071044  RH  034%=      5-min Rain = 0
KCL2 231541Z 25025G30KT 11/M04 A2988 RMK A01 T01071044  RH  034%=      5-min Rain = 0
KCL2 231542Z 24025G32KT 11/M05 A2988 RMK A01 T01061045  RH  034%=      5-min Rain = 0
KCL2 231543Z 25022G27KT 11/M05 A2988 RMK A01 T01061048  RH  033%=      5-min Rain = 0
KCL2 231544Z 26020G26KT 11/M04 A2988 RMK A01 T01071044  RH  034%=      5-min Rain = 0
KCL2 231545Z 25023G30KT 11/M04 A2988 RMK A01 T01091043  RH  034%=      5-min Rain = 0
KCL2 231546Z 26025KT 11/M04 A2988 RMK A01 T01091044  RH  034%=      5-min Rain = 0
KCL2 231547Z 25027KT 11/M05 A2988 RMK A01 T01081047  RH  033%=      5-min Rain = 0
KCL2 231548Z 26024KT 11/M05 A2988 RMK A01 T01081047  RH  033%=      5-min Rain = 0
KCL2 231549Z 25023KT 11/M04 A2988 RMK A01 T01091044  RH  034%=      5-min Rain = 0
KCL2 231550Z 26027KT 11/M05 A2988 RMK A01 T01091047  RH  033%=      5-min Rain = 0
KCL2 231551Z 25022G29KT 11/M05 A2988 RMK A01 T01081048  RH  033%=      5-min Rain = 0
KCL2 231552Z 26020G25KT 11/M04 A2988 RMK A01 T01091043  RH  034%=      5-min Rain = 0
KCL2 231553Z 26025G31KT 11/M04 A2988 RMK A01 T01121043  RH  034%=      5-min Rain = 0
KCL2 231554Z 26026KT 11/M05 A2988 RMK A01 T01111049  RH  032%=      5-min Rain = 0
KCL2 231555Z 26022G27KT 11/M05 A2988 RMK A01 T01101048  RH  033%=      5-min Rain = 0
KCL2 231556Z 26019KT 11/M04 A2988 RMK A01 T01101044  RH  034%=      5-min Rain = 0
KCL2 231557Z 26017G24KT 11/M04 A2988 RMK A01 T01131042  RH  034%=      5-min Rain = 0
KCL2 231558Z 26023KT 12/M04 A2988 RMK A01 T01151042  RH  033%=      5-min Rain = 0
KCL2 231559Z 26024G33KT 12/M05 A2988 RMK A01 T01151045  RH  032%=      5-min Rain = 0
KCL2 231600Z 26023G29KT 11/M05 A2988 RMK A01 T01141048  RH  032%=      5-min Rain = 0
KCL2 231601Z 26024G31KT 11/M05 A2988 RMK A01 T01131047  RH  032%=      5-min Rain = 0
KCL2 231602Z 26026KT 11/M05 A2988 RMK A01 T01121046  RH  033%=      5-min Rain = 0
KCL2 231603Z 26025G30KT 11/M05 A2988 RMK A01 T01121047  RH  033%=      5-min Rain = 0
KCL2 231604Z 26024G29KT 11/M05 A2988 RMK A01 T01111047  RH  033%=      5-min Rain = 0
KCL2 231605Z 26022G30KT 11/M04 A2989 RMK A01 T01121044  RH  033%=      5-min Rain = 0
KCL2 231606Z 26025G31KT 11/M05 A2988 RMK A01 T01131045  RH  033%=      5-min Rain = 0
KCL2 231607Z 26020G26KT 11/M05 A2988 RMK A01 T01131046  RH  033%=      5-min Rain = 0
KCL2 231608Z 26024G30KT 12/M04 A2988 RMK A01 T01151043  RH  033%=      5-min Rain = 0
KCL2 231609Z 25021G26KT 12/M04 A2988 RMK A01 T01151044  RH  033%=      5-min Rain = 0
KCL2 231610Z 25025G30KT 11/M05 A2988 RMK A01 T01131046  RH  032%=      5-min Rain = 0
KCL2 231611Z 26023G28KT 11/M05 A2988 RMK A01 T01121045  RH  033%=      5-min Rain = 0
KCL2 231612Z 26022KT 11/M04 A2988 RMK A01 T01121044  RH  033%=      5-min Rain = 0
KCL2 231613Z 26017KT 11/M04 A2988 RMK A01 T01141041  RH  034%=      5-min Rain = 0
KCL2 231614Z 25019KT 12/M04 A2988 RMK A01 T01171037  RH  034%=      5-min Rain = 0
KCL2 231615Z 25021G26KT 12/M04 A2988 RMK A01 T01191037  RH  033%=      5-min Rain = 0
KCL2 231616Z 25019G24KT 12/M04 A2988 RMK A01 T01191040  RH  033%=      5-min Rain = 0
KCL2 231617Z 25016G22KT 12/M04 A2988 RMK A01 T01191038  RH  033%=      5-min Rain = 0
KCL2 231618Z 25021G28KT 12/M04 A2988 RMK A01 T01221035  RH  033%=      5-min Rain = 0
KCL2 231619Z 25023G29KT 12/M04 A2988 RMK A01 T01211042  RH  032%=      5-min Rain = 0
KCL2 231620Z 26025G30KT 12/M04 A2988 RMK A01 T01191042  RH  032%=      5-min Rain = 0
KCL2 231621Z 25023G29KT 12/M04 A2988 RMK A01 T01181044  RH  032%=      5-min Rain = 0
KCL2 231622Z 25020KT 12/M05 A2988 RMK A01 T01161045  RH  032%=      5-min Rain = 0
KCL2 231623Z 25021KT 12/M04 A2988 RMK A01 T01171043  RH  032%=      5-min Rain = 0
KCL2 231624Z 25018G24KT 12/M04 A2988 RMK A01 T01171040  RH  033%=      5-min Rain = 0
KCL2 231625Z 25020G29KT 12/M04 A2988 RMK A01 T01211035  RH  034%=      5-min Rain = 0
KCL2 231626Z 26024G30KT 12/M04 A2987 RMK A01 T01221043  RH  031%=      5-min Rain = 0
KCL2 231627Z 26019G24KT 12/M05 A2987 RMK A01 T01201045  RH  031%=      5-min Rain = 0
KCL2 231628Z 25021G26KT 12/M04 A2987 RMK A01 T01211041  RH  032%=      5-min Rain = 0
KCL2 231629Z 26022KT 12/M04 A2987 RMK A01 T01211044  RH  031%=      5-min Rain = 0
KCL2 231630Z 26023KT 12/M04 A2987 RMK A01 T01211043  RH  031%=      5-min Rain = 0
KCL2 231631Z 25023KT 12/M05 A2987 RMK A01 T01191045  RH  031%=      5-min Rain = 0
KCL2 231632Z 26020KT 12/M04 A2987 RMK A01 T01191042  RH  032%=      5-min Rain = 0
KCL2 231633Z 26021KT 12/M04 A2987 RMK A01 T01221041  RH  032%=      5-min Rain = 0
KCL2 231634Z 26022G27KT 12/M04 A2987 RMK A01 T01231040  RH  032%=      5-min Rain = 0
KCL2 231635Z 25022G27KT 12/M04 A2987 RMK A01 T01241041  RH  031%=      5-min Rain = 0
KCL2 231636Z 26024G29KT 12/M04 A2987 RMK A01 T01241042  RH  031%=      5-min Rain = 0
KCL2 231637Z 26027KT 12/M05 A2987 RMK A01 T01221045  RH  031%=      5-min Rain = 0
KCL2 231638Z 26026G31KT 12/M05 A2987 RMK A01 T01211047  RH  031%=      5-min Rain = 0
KCL2 231639Z 26023G28KT 12/M05 A2987 RMK A01 T01211046  RH  031%=      5-min Rain = 0
KCL2 231640Z 26022G27KT 12/M04 A2988 RMK A01 T01221044  RH  031%=      5-min Rain = 0
KCL2 231641Z 26023G28KT 12/M04 A2988 RMK A01 T01231044  RH  031%=      5-min Rain = 0
KCL2 231642Z 26025KT 13/M04 A2988 RMK A01 T01251044  RH  031%=      5-min Rain = 0
KCL2 231643Z 26026G31KT 13/M05 A2988 RMK A01 T01251047  RH  030%=      5-min Rain = 0
KCL2 231644Z 26022G27KT 12/M05 A2988 RMK A01 T01221048  RH  030%=      5-min Rain = 0
KCL2 231645Z 25025KT 12/M04 A2988 RMK A01 T01231044  RH  031%=      5-min Rain = 0
KCL2 231646Z 25023KT 12/M05 A2988 RMK A01 T01231046  RH  030%=      5-min Rain = 0
KCL2 231647Z 25022G29KT 12/M05 A2988 RMK A01 T01231045  RH  031%=      5-min Rain = 0
KCL2 231648Z 25025KT 12/M05 A2988 RMK A01 T01231046  RH  030%=      5-min Rain = 0
KCL2 231649Z 25024G31KT 12/M05 A2988 RMK A01 T01241047  RH  030%=      5-min Rain = 0
KCL2 231650Z 26026G31KT 12/M05 A2988 RMK A01 T01241045  RH  030%=      5-min Rain = 0
KCL2 231651Z 25026KT 13/M05 A2987 RMK A01 T01251047  RH  030%=      5-min Rain = 0
KCL2 231652Z 26024G29KT 12/M05 A2988 RMK A01 T01231047  RH  030%=      5-min Rain = 0
KCL2 231653Z 26020G25KT 13/M04 A2988 RMK A01 T01251042  RH  031%=      5-min Rain = 0
KCL2 231654Z 27021G26KT 13/M04 A2988 RMK A01 T01281040  RH  031%=      5-min Rain = 0
KCL2 231655Z 27023KT 13/M05 A2988 RMK A01 T01291045  RH  030%=      5-min Rain = 0
KCL2 231656Z 25023KT 13/M05 A2988 RMK A01 T01261046  RH  030%=      5-min Rain = 0
KCL2 231657Z 26023G28KT 13/M04 A2988 RMK A01 T01261043  RH  030%=      5-min Rain = 0
KCL2 231658Z 26022G28KT 13/M04 A2988 RMK A01 T01271044  RH  030%=      5-min Rain = 0
KCL2 231659Z 26028G33KT 13/M05 A2988 RMK A01 T01291045  RH  030%=      5-min Rain = 0
KCL2 231700Z 25029KT 13/M05 A2987 RMK A01 T01281048  RH  029%=      5-min Rain = 0
KCL2 231701Z 26022G27KT 13/M05 A2988 RMK A01 T01281047  RH  029%=      5-min Rain = 0
KCL2 231702Z 26025G30KT 13/M05 A2988 RMK A01 T01301046  RH  029%=      5-min Rain = 0
KCL2 231703Z 26026KT 13/M05 A2988 RMK A01 T01301048  RH  029%=      5-min Rain = 0
KCL2 231704Z 26028G36KT 13/M05 A2988 RMK A01 T01281050  RH  028%=      5-min Rain = 0
KCL2 231705Z 26029G34KT 13/M05 A2987 RMK A01 T01281050  RH  029%=      5-min Rain = 0
KCL2 231706Z 26023G29KT 13/M05 A2987 RMK A01 T01291047  RH  029%=      5-min Rain = 0
KCL2 231707Z 25026G31KT 13/M05 A2988 RMK A01 T01321045  RH  029%=      5-min Rain = 0
KCL2 231708Z 25024G29KT 13/M05 A2988 RMK A01 T01321048  RH  028%=      5-min Rain = 0
KCL2 231709Z 26027KT 13/M05 A2987 RMK A01 T01321049  RH  028%=      5-min Rain = 0
KCL2 231710Z 26027G32KT 13/M05 A2987 RMK A01 T01301051  RH  028%=      5-min Rain = 0
KCL2 231711Z 25025KT 13/M05 A2987 RMK A01 T01291051  RH  028%=      5-min Rain = 0
KCL2 231712Z 26027G34KT 13/M05 A2987 RMK A01 T01301049  RH  028%=      5-min Rain = 0
KCL2 231713Z 27024KT 13/M05 A2988 RMK A01 T01311048  RH  028%=      5-min Rain = 0
KCL2 231714Z 26028KT 13/M05 A2987 RMK A01 T01321049  RH  028%=      5-min Rain = 0
KCL2 231715Z 26026G33KT 13/M05 A2988 RMK A01 T01311050  RH  028%=      5-min Rain = 0
KCL2 231716Z 26023G31KT 13/M05 A2988 RMK A01 T01301050  RH  028%=      5-min Rain = 0
KCL2 231717Z 26030KT 13/M05 A2988 RMK A01 T01301049  RH  028%=      5-min Rain = 0
KCL2 231718Z 26025KT 13/M05 A2988 RMK A01 T01311049  RH  028%=      5-min Rain = 0
KCL2 231719Z 25023G29KT 13/M05 A2988 RMK A01 T01321048  RH  028%=      5-min Rain = 0
KCL2 231720Z 25026G31KT 13/M05 A2987 RMK A01 T01311051  RH  028%=      5-min Rain = 0
KCL2 231721Z 26027G35KT 13/M05 A2988 RMK A01 T01301051  RH  028%=      5-min Rain = 0
KCL2 231722Z 25020G26KT 13/M05 A2988 RMK A01 T01311047  RH  029%=      5-min Rain = 0
KCL2 231723Z 26025KT 14/M05 A2988 RMK A01 T01351046  RH  028%=      5-min Rain = 0
KCL2 231724Z 26026G32KT 14/M05 A2988 RMK A01 T01351048  RH  028%=      5-min Rain = 0
KCL2 231725Z 26023G29KT 14/M05 A2988 RMK A01 T01351048  RH  028%=      5-min Rain = 0
KCL2 231726Z 26023KT 13/M05 A2988 RMK A01 T01341050  RH  028%=      5-min Rain = 0
KCL2 231727Z 25022KT 13/M05 A2988 RMK A01 T01331047  RH  028%=      5-min Rain = 0
KCL2 231728Z 25020G25KT 14/M05 A2988 RMK A01 T01351047  RH  028%=      5-min Rain = 0
KCL2 231729Z 25022KT 14/M04 A2988 RMK A01 T01371044  RH  028%=      5-min Rain = 0
KCL2 231730Z 25022G30KT 14/M04 A2988 RMK A01 T01371044  RH  028%=      5-min Rain = 0
KCL2 231731Z 25027G34KT 14/M05 A2988 RMK A01 T01371046  RH  028%=      5-min Rain = 0
KCL2 231732Z 26022G31KT 14/M05 A2988 RMK A01 T01361046  RH  028%=      5-min Rain = 0
KCL2 231733Z 26022G28KT 14/M04 A2988 RMK A01 T01381044  RH  028%=      5-min Rain = 0
KCL2 231734Z 26022G33KT 14/M05 A2988 RMK A01 T01381045  RH  028%=      5-min Rain = 0
KCL2 231735Z 26028G33KT 14/M05 A2988 RMK A01 T01391049  RH  027%=      5-min Rain = 0
KCL2 231736Z 26021KT 14/M05 A2988 RMK A01 T01381051  RH  027%=      5-min Rain = 0
KCL2 231737Z 26021G26KT 14/M05 A2988 RMK A01 T01401047  RH  027%=      5-min Rain = 0
KCL2 231738Z 25029KT 14/M05 A2988 RMK A01 T01411047  RH  027%=      5-min Rain = 0
KCL2 231739Z 25028G33KT 14/M05 A2988 RMK A01 T01401049  RH  027%=      5-min Rain = 0
KCL2 231740Z 26025G31KT 14/M05 A2988 RMK A01 T01371050  RH  027%=      5-min Rain = 0
KCL2 231741Z 26022KT 14/M05 A2988 RMK A01 T01371049  RH  027%=      5-min Rain = 0
KCL2 231742Z 25027KT 14/M05 A2988 RMK A01 T01401045  RH  027%=      5-min Rain = 0
KCL2 231743Z 25027G33KT 14/M05 A2988 RMK A01 T01411047  RH  027%=      5-min Rain = 0
KCL2 231744Z 25031G37KT 14/M05 A2988 RMK A01 T01401051  RH  026%=      5-min Rain = 0
KCL2 231745Z 25027G35KT 14/M05 A2988 RMK A01 T01381051  RH  027%=      5-min Rain = 0
KCL2 231746Z 25025KT 14/M05 A2988 RMK A01 T01391048  RH  027%=      5-min Rain = 0
KCL2 231747Z 25025KT 14/M05 A2988 RMK A01 T01401049  RH  027%=      5-min Rain = 0
KCL2 231748Z 26024G30KT 14/M05 A2988 RMK A01 T01391052  RH  026%=      5-min Rain = 0
KCL2 231749Z 26024G31KT 14/M05 A2988 RMK A01 T01381049  RH  027%=      5-min Rain = 0
KCL2 231750Z 26023KT 14/M05 A2988 RMK A01 T01391049  RH  027%=      5-min Rain = 0
KCL2 231751Z 26023G29KT 14/M05 A2988 RMK A01 T01411046  RH  027%=      5-min Rain = 0
KCL2 231752Z 26024G30KT 14/M05 A2988 RMK A01 T01431050  RH  026%=      5-min Rain = 0
KCL2 231753Z 25022G28KT 14/M05 A2988 RMK A01 T01431051  RH  026%=      5-min Rain = 0
KCL2 231754Z 26025G32KT 14/M05 A2988 RMK A01 T01431049  RH  026%=      5-min Rain = 0
KCL2 231755Z 25026KT 14/M05 A2988 RMK A01 T01441053  RH  025%=      5-min Rain = 0
KCL2 231756Z 25025G30KT 15/M05 A2988 RMK A01 T01451050  RH  026%=      5-min Rain = 0
KCL2 231757Z 26024G29KT 15/M05 A2988 RMK A01 T01451053  RH  025%=      5-min Rain = 0
KCL2 231758Z 26022KT 14/M05 A2988 RMK A01 T01431053  RH  025%=      5-min Rain = 0
KCL2 231759Z 25021G27KT 14/M05 A2988 RMK A01 T01431052  RH  025%=      5-min Rain = 0
KCL2 231800Z 24025G34KT 15/M05 A2988 RMK A01 T01451048  RH  026%=      5-min Rain = 0
KCL2 231801Z 25024G29KT 15/M05 A2988 RMK A01 T01461051  RH  025%=      5-min Rain = 0
KCL2 231802Z 25029KT 15/M05 A2987 RMK A01 T01461050  RH  025%=      5-min Rain = 0
KCL2 231803Z 26028KT 15/M05 A2988 RMK A01 T01451053  RH  025%=      5-min Rain = 0
KCL2 231804Z 25026KT 14/M05 A2988 RMK A01 T01441054  RH  025%=      5-min Rain = 0
KCL2 231805Z 25027G32KT 14/M06 A2988 RMK A01 T01431055  RH  025%=      5-min Rain = 0
KCL2 231806Z 26024G30KT 14/M06 A2987 RMK A01 T01431055  RH  025%=      5-min Rain = 0
KCL2 231807Z 26026G31KT 15/M05 A2987 RMK A01 T01461051  RH  025%=      5-min Rain = 0
KCL2 231808Z 26024G31KT 15/M05 A2987 RMK A01 T01471054  RH  025%=      5-min Rain = 0
KCL2 231809Z 27029G34KT 15/M06 A2987 RMK A01 T01481058  RH  024%=      5-min Rain = 0
KCL2 231810Z 27024G30KT 15/M06 A2987 RMK A01 T01451059  RH  024%=      5-min Rain = 0
KCL2 231811Z 26028G39KT 15/M05 A2987 RMK A01 T01471052  RH  025%=      5-min Rain = 0
KCL2 231812Z 26028G34KT 15/M06 A2987 RMK A01 T01481056  RH  024%=      5-min Rain = 0
KCL2 231813Z 26027KT 15/M06 A2987 RMK A01 T01461056  RH  024%=      5-min Rain = 0
KCL2 231814Z 26026KT 15/M05 A2987 RMK A01 T01451054  RH  025%=      5-min Rain = 0
KCL2 231815Z 27026G35KT 15/M06 A2987 RMK A01 T01461056  RH  024%=      5-min Rain = 0
KCL2 231816Z 27022KT 15/M06 A2987 RMK A01 T01461056  RH  024%=      5-min Rain = 0
KCL2 231817Z 27022G30KT 15/M05 A2987 RMK A01 T01491053  RH  024%=      5-min Rain = 0
KCL2 231818Z 27026KT 15/M05 A2987 RMK A01 T01531049  RH  025%=      5-min Rain = 0
KCL2 231819Z 26021G29KT 15/M05 A2987 RMK A01 T01531051  RH  024%=      5-min Rain = 0
KCL2 231820Z 26024G30KT 15/M05 A2987 RMK A01 T01531052  RH  024%=      5-min Rain = 0
KCL2 231821Z 26025KT 15/M05 A2987 RMK A01 T01541052  RH  024%=      5-min Rain = 0
KCL2 231822Z 27024KT 15/M06 A2987 RMK A01 T01511055  RH  024%=      5-min Rain = 0
KCL2 231823Z 26023KT 15/M05 A2987 RMK A01 T01501052  RH  024%=      5-min Rain = 0
KCL2 231824Z 26022G29KT 15/M05 A2987 RMK A01 T01531047  RH  025%=      5-min Rain = 0
KCL2 231825Z 26024G32KT 16/M05 A2987 RMK A01 T01571045  RH  025%=      5-min Rain = 0
KCL2 231826Z 26022G28KT 16/M05 A2987 RMK A01 T01571049  RH  024%=      5-min Rain = 0
KCL2 231827Z 25028KT 16/M05 A2987 RMK A01 T01561052  RH  024%=      5-min Rain = 0
KCL2 231828Z 26021G27KT 15/M05 A2987 RMK A01 T01531053  RH  024%=      5-min Rain = 0
KCL2 231829Z 26018G26KT 16/M05 A2987 RMK A01 T01561045  RH  025%=      5-min Rain = 0
KCL2 231830Z 26020G29KT 16/M04 A2987 RMK A01 T01631040  RH  025%=      5-min Rain = 0
KCL2 231831Z 26020G30KT 16/M05 A2987 RMK A01 T01641045  RH  024%=      5-min Rain = 0
KCL2 231832Z 27021KT 16/M04 A2987 RMK A01 T01631043  RH  024%=      5-min Rain = 0
KCL2 231833Z 26023G36KT 16/M05 A2987 RMK A01 T01641047  RH  023%=      5-min Rain = 0
KCL2 231834Z 27024G33KT 16/M05 A2987 RMK A01 T01601053  RH  023%=      5-min Rain = 0
KCL2 231835Z 27024G30KT 16/M05 A2987 RMK A01 T01581051  RH  023%=      5-min Rain = 0
KCL2 231836Z 26028KT 16/M05 A2987 RMK A01 T01581051  RH  023%=      5-min Rain = 0
KCL2 231837Z 27022G27KT 16/M05 A2987 RMK A01 T01581053  RH  023%=      5-min Rain = 0
KCL2 231838Z 27028G34KT 16/M05 A2987 RMK A01 T01571054  RH  023%=      5-min Rain = 0
KCL2 231839Z 28027G32KT 16/M06 A2987 RMK A01 T01561055  RH  023%=      5-min Rain = 0
KCL2 231840Z 27023G28KT 16/M05 A2987 RMK A01 T01551053  RH  023%=      5-min Rain = 0
KCL2 231841Z 28029KT 16/M05 A2986 RMK A01 T01561054  RH  023%=      5-min Rain = 0
KCL2 231842Z 28026KT 15/M06 A2987 RMK A01 T01531058  RH  023%=      5-min Rain = 0
KCL2 231843Z 27025G30KT 16/M05 A2987 RMK A01 T01551052  RH  024%=      5-min Rain = 0
KCL2 231844Z 27023KT 16/M05 A2987 RMK A01 T01561053  RH  023%=      5-min Rain = 0
KCL2 231845Z 26024G31KT 16/M05 A2987 RMK A01 T01571050  RH  024%=      5-min Rain = 0
KCL2 231846Z 26026G31KT 16/M05 A2987 RMK A01 T01581051  RH  023%=      5-min Rain = 0
KCL2 231847Z 27024KT 16/M06 A2987 RMK A01 T01571055  RH  023%=      5-min Rain = 0
KCL2 231848Z 26023G28KT 16/M05 A2987 RMK A01 T01571053  RH  023%=      5-min Rain = 0
KCL2 231849Z 26024G30KT 16/M05 A2987 RMK A01 T01591050  RH  023%=      5-min Rain = 0
KCL2 231850Z 27027G34KT 16/M05 A2987 RMK A01 T01601050  RH  023%=      5-min Rain = 0
KCL2 231851Z 27023G29KT 16/M05 A2987 RMK A01 T01581053  RH  023%=      5-min Rain = 0
KCL2 231852Z 27019G24KT 16/M05 A2987 RMK A01 T01571050  RH  024%=      5-min Rain = 0
KCL2 231853Z 28027G33KT 16/M05 A2986 RMK A01 T01591050  RH  023%=      5-min Rain = 0
KCL2 231854Z 27024KT 16/M05 A2986 RMK A01 T01601053  RH  023%=      5-min Rain = 0
KCL2 231855Z 27021G29KT 16/M05 A2987 RMK A01 T01601050  RH  023%=      5-min Rain = 0
KCL2 231856Z 26025KT 16/M05 A2986 RMK A01 T01641047  RH  023%=      5-min Rain = 0
KCL2 231857Z 26020KT 17/M05 A2987 RMK A01 T01651046  RH  023%=      5-min Rain = 0
KCL2 231858Z 28024G30KT 17/M05 A2986 RMK A01 T01661045  RH  023%=      5-min Rain = 0
KCL2 231859Z 27024G30KT 17/M05 A2986 RMK A01 T01661050  RH  022%=      5-min Rain = 0
KCL2 231900Z 27031G36KT 16/M06 A2986 RMK A01 T01641055  RH  022%=      5-min Rain = 0
KCL2 231901Z 27027G34KT 16/M06 A2986 RMK A01 T01591059  RH  022%=      5-min Rain = 0
KCL2 231902Z 28028G34KT 16/M06 A2986 RMK A01 T01591055  RH  022%=      5-min Rain = 0
KCL2 231903Z 27028G34KT 16/M06 A2986 RMK A01 T01591057  RH  022%=      5-min Rain = 0
KCL2 231904Z 27029G34KT 16/M06 A2986 RMK A01 T01581057  RH  022%=      5-min Rain = 0
KCL2 231905Z 27027G34KT 16/M06 A2986 RMK A01 T01571055  RH  023%=      5-min Rain = 0
KCL2 231906Z 28028KT 16/M06 A2985 RMK A01 T01561056  RH  023%=      5-min Rain = 0
KCL2 231907Z 28026G32KT 16/M05 A2986 RMK A01 T01561053  RH  023%=      5-min Rain = 0
KCL2 231908Z 28028G34KT 16/M05 A2986 RMK A01 T01581052  RH  023%=      5-min Rain = 0
KCL2 231909Z 28030KT 16/M05 A2986 RMK A01 T01581054  RH  023%=      5-min Rain = 0
KCL2 231910Z 29031G37KT 16/M06 A2985 RMK A01 T01571056  RH  023%=      5-min Rain = 0
KCL2 231911Z 28025G31KT 16/M05 A2986 RMK A01 T01561053  RH  023%=      5-min Rain = 0
KCL2 231912Z 26026KT 16/M05 A2986 RMK A01 T01581049  RH  024%=      5-min Rain = 0
KCL2 231913Z 27021G28KT 16/M05 A2986 RMK A01 T01601049  RH  023%=      5-min Rain = 0
KCL2 231914Z 27027KT 16/M05 A2986 RMK A01 T01631049  RH  023%=      5-min Rain = 0
KCL2 231915Z 27028G34KT 16/M05 A2986 RMK A01 T01621049  RH  023%=      5-min Rain = 0
KCL2 231916Z 25029G34KT 16/M05 A2986 RMK A01 T01621049  RH  023%=      5-min Rain = 0
KCL2 231917Z 25032G37KT 16/M05 A2985 RMK A01 T01591053  RH  023%=      5-min Rain = 0
KCL2 231918Z 26032G41KT 16/M05 A2986 RMK A01 T01571054  RH  023%=      5-min Rain = 0
KCL2 231919Z 26028G34KT 16/M05 A2986 RMK A01 T01571054  RH  023%=      5-min Rain = 0
KCL2 231920Z 26030G35KT 16/M05 A2986 RMK A01 T01571054  RH  023%=      5-min Rain = 0
KCL2 231921Z 26027G32KT 16/M05 A2986 RMK A01 T01571053  RH  023%=      5-min Rain = 0
KCL2 231922Z 26028G37KT 16/M05 A2986 RMK A01 T01581053  RH  023%=      5-min Rain = 0
KCL2 231923Z 25028G34KT 16/M05 A2986 RMK A01 T01591051  RH  023%=      5-min Rain = 0
KCL2 231924Z 25026G31KT 16/M05 A2986 RMK A01 T01601052  RH  023%=      5-min Rain = 0
KCL2 231925Z 26026KT 16/M05 A2986 RMK A01 T01601049  RH  023%=      5-min Rain = 0
KCL2 231926Z 26027G32KT 16/M05 A2986 RMK A01 T01611050  RH  023%=      5-min Rain = 0
KCL2 231927Z 26025G30KT 16/M05 A2986 RMK A01 T01601051  RH  023%=      5-min Rain = 0
KCL2 231928Z 27025G38KT 16/M05 A2986 RMK A01 T01601049  RH  023%=      5-min Rain = 0
KCL2 231929Z 29032G40KT 16/M06 A2986 RMK A01 T01621057  RH  022%=      5-min Rain = 0
KCL2 231930Z 28029KT 16/M06 A2985 RMK A01 T01611060  RH  021%=      5-min Rain = 0
KCL2 231931Z 28027G34KT 16/M06 A2986 RMK A01 T01601059  RH  022%=      5-min Rain = 0
KCL2 231932Z 28026KT 16/M06 A2986 RMK A01 T01601057  RH  022%=      5-min Rain = 0
KCL2 231933Z 28027G35KT 16/M06 A2985 RMK A01 T01611055  RH  022%=      5-min Rain = 0
KCL2 231934Z 28027G35KT 16/M06 A2986 RMK A01 T01621057  RH  022%=      5-min Rain = 0
KCL2 231935Z 28027G33KT 16/M06 A2985 RMK A01 T01621056  RH  022%=      5-min Rain = 0
KCL2 231936Z 26020G26KT 16/M05 A2986 RMK A01 T01621052  RH  023%=      5-min Rain = 0
KCL2 231937Z 26022G34KT 17/M05 A2986 RMK A01 T01661047  RH  023%=      5-min Rain = 0
KCL2 231938Z 26027G36KT 17/M05 A2986 RMK A01 T01681050  RH  022%=      5-min Rain = 0
KCL2 231939Z 26030G35KT 17/M05 A2986 RMK A01 T01681054  RH  021%=      5-min Rain = 0
KCL2 231940Z 26028KT 17/M06 A2986 RMK A01 T01651058  RH  021%=      5-min Rain = 0
KCL2 231941Z 27029KT 16/M06 A2986 RMK A01 T01631057  RH  022%=      5-min Rain = 0
KCL2 231942Z 28022G27KT 16/M06 A2986 RMK A01 T01631057  RH  022%=      5-min Rain = 0
KCL2 231943Z 27027G33KT 16/M06 A2985 RMK A01 T01641056  RH  022%=      5-min Rain = 0
KCL2 231944Z 27029G36KT 16/M06 A2986 RMK A01 T01641056  RH  022%=      5-min Rain = 0
KCL2 231945Z 27028KT 17/M06 A2986 RMK A01 T01651059  RH  021%=      5-min Rain = 0
KCL2 231946Z 26028KT 16/M06 A2986 RMK A01 T01631059  RH  021%=      5-min Rain = 0
KCL2 231947Z 26029G34KT 16/M06 A2986 RMK A01 T01621060  RH  021%=      5-min Rain = 0
KCL2 231948Z 27026G31KT 16/M06 A2986 RMK A01 T01621060  RH  021%=      5-min Rain = 0
KCL2 231949Z 26027G36KT 16/M06 A2986 RMK A01 T01631055  RH  022%=      5-min Rain = 0
KCL2 231950Z 27024KT 17/M05 A2986 RMK A01 T01681050  RH  022%=      5-min Rain = 0
KCL2 231951Z 27025G31KT 17/M05 A2986 RMK A01 T01701052  RH  021%=      5-min Rain = 0
KCL2 231952Z 27028KT 17/M06 A2986 RMK A01 T01691057  RH  021%=      5-min Rain = 0
KCL2 231953Z 28023G28KT 17/M06 A2986 RMK A01 T01661057  RH  021%=      5-min Rain = 0
KCL2 231954Z 28031G36KT 17/M06 A2986 RMK A01 T01661057  RH  021%=      5-min Rain = 0
KCL2 231955Z 28029G34KT 17/M06 A2986 RMK A01 T01661059  RH  021%=      5-min Rain = 0
KCL2 231956Z 28026G32KT 17/M06 A2986 RMK A01 T01651059  RH  021%=      5-min Rain = 0
KCL2 231957Z 27028G38KT 17/M06 A2986 RMK A01 T01651059  RH  021%=      5-min Rain = 0
KCL2 231958Z 28028G33KT 16/M06 A2986 RMK A01 T01641059  RH  021%=      5-min Rain = 0
KCL2 231959Z 28024G33KT 17/M06 A2986 RMK A01 T01651057  RH  021%=      5-min Rain = 0
KCL2 232000Z 28029G38KT 17/M06 A2986 RMK A01 T01651058  RH  021%=      5-min Rain = 0
KCL2 232001Z 28028G34KT 16/M06 A2986 RMK A01 T01641059  RH  021%=      5-min Rain = 0
KCL2 232002Z 27024G31KT 16/M06 A2986 RMK A01 T01641058  RH  021%=      5-min Rain = 0
KCL2 232003Z 28028G36KT 17/M06 A2986 RMK A01 T01661059  RH  021%=      5-min Rain = 0
KCL2 232004Z 29024G33KT 17/M06 A2986 RMK A01 T01661057  RH  021%=      5-min Rain = 0
KCL2 232005Z 29022G30KT 17/M06 A2986 RMK A01 T01661056  RH  021%=      5-min Rain = 0
KCL2 232006Z 28026G37KT 17/M05 A2986 RMK A01 T01691052  RH  022%=      5-min Rain = 0
KCL2 232007Z 28028G34KT 17/M06 A2986 RMK A01 T01691056  RH  021%=      5-min Rain = 0
KCL2 232008Z 28029G35KT 17/M06 A2986 RMK A01 T01671059  RH  021%=      5-min Rain = 0
KCL2 232009Z 27027G34KT 17/M06 A2986 RMK A01 T01661058  RH  021%=      5-min Rain = 0
KCL2 232010Z 27022G27KT 17/M06 A2986 RMK A01 T01671056  RH  021%=      5-min Rain = 0
KCL2 232011Z 27020G25KT 17/M06 A2986 RMK A01 T01691055  RH  021%=      5-min Rain = 0
KCL2 232012Z 28027G35KT 17/M05 A2986 RMK A01 T01711053  RH  021%=      5-min Rain = 0
KCL2 232013Z 27032G37KT 17/M06 A2986 RMK A01 T01691060  RH  020%=      5-min Rain = 0
KCL2 232014Z 27026G33KT 17/M06 A2986 RMK A01 T01651060  RH  021%=      5-min Rain = 0
KCL2 232015Z 27029G35KT 17/M06 A2986 RMK A01 T01661058  RH  021%=      5-min Rain = 0
KCL2 232016Z 26026G32KT 16/M06 A2986 RMK A01 T01641061  RH  021%=      5-min Rain = 0
KCL2 232017Z 28025G30KT 16/M06 A2986 RMK A01 T01641057  RH  021%=      5-min Rain = 0
KCL2 232018Z 28027G32KT 17/M06 A2986 RMK A01 T01651059  RH  021%=      5-min Rain = 0
KCL2 232019Z 28030G35KT 16/M06 A2986 RMK A01 T01631061  RH  021%=      5-min Rain = 0
KCL2 232020Z 28027G35KT 16/M06 A2986 RMK A01 T01631061  RH  021%=      5-min Rain = 0
KCL2 232021Z 28029G37KT 16/M06 A2986 RMK A01 T01641058  RH  021%=      5-min Rain = 0
KCL2 232022Z 27024G38KT 17/M06 A2986 RMK A01 T01651060  RH  021%=      5-min Rain = 0
KCL2 232023Z 28024G33KT 17/M06 A2987 RMK A01 T01681055  RH  021%=      5-min Rain = 0
KCL2 232024Z 26023G30KT 17/M06 A2986 RMK A01 T01681059  RH  021%=      5-min Rain = 0
KCL2 232025Z 27025G31KT 17/M06 A2986 RMK A01 T01671058  RH  021%=      5-min Rain = 0
KCL2 232026Z 27029G35KT 17/M06 A2986 RMK A01 T01661057  RH  021%=      5-min Rain = 0
KCL2 232027Z 27031G36KT 17/M06 A2986 RMK A01 T01671058  RH  021%=      5-min Rain = 0
KCL2 232028Z 27033G42KT 17/M06 A2986 RMK A01 T01661061  RH  021%=      5-min Rain = 0
KCL2 232029Z 27029G43KT 17/M06 A2986 RMK A01 T01651062  RH  021%=      5-min Rain = 0
KCL2 232030Z 26033G40KT 17/M06 A2986 RMK A01 T01651061  RH  021%=      5-min Rain = 0
KCL2 232031Z 27030G36KT 17/M06 A2986 RMK A01 T01651063  RH  020%=      5-min Rain = 0
KCL2 232032Z 28030KT 16/M06 A2986 RMK A01 T01641063  RH  020%=      5-min Rain = 0
KCL2 232033Z 28029G35KT 16/M06 A2986 RMK A01 T01641064  RH  020%=      5-min Rain = 0
KCL2 232034Z 28024G30KT 16/M06 A2987 RMK A01 T01641061  RH  021%=      5-min Rain = 0
KCL2 232035Z 28029G35KT 17/M06 A2986 RMK A01 T01671057  RH  021%=      5-min Rain = 0
KCL2 232036Z 28025G33KT 17/M06 A2986 RMK A01 T01681059  RH  021%=      5-min Rain = 0
KCL2 232037Z 27025G31KT 17/M06 A2986 RMK A01 T01671058  RH  021%=      5-min Rain = 0
KCL2 232038Z 27023KT 17/M05 A2987 RMK A01 T01691053  RH  021%=      5-min Rain = 0
KCL2 232039Z 26027G37KT 17/M05 A2987 RMK A01 T01711053  RH  021%=      5-min Rain = 0
KCL2 232040Z 27030G37KT 17/M06 A2986 RMK A01 T01711057  RH  020%=      5-min Rain = 0
KCL2 232041Z 27026G31KT 17/M06 A2987 RMK A01 T01691060  RH  020%=      5-min Rain = 0
KCL2 232042Z 26027G33KT 17/M06 A2987 RMK A01 T01691059  RH  020%=      5-min Rain = 0
KCL2 232043Z 26032G39KT 17/M06 A2987 RMK A01 T01681062  RH  020%=      5-min Rain = 0
KCL2 232044Z 27028G34KT 17/M07 A2987 RMK A01 T01651065  RH  020%=      5-min Rain = 0
KCL2 232045Z 27023KT 17/M06 A2987 RMK A01 T01651062  RH  021%=      5-min Rain = 0
KCL2 232046Z 27020G25KT 17/M06 A2987 RMK A01 T01671058  RH  021%=      5-min Rain = 0
KCL2 232047Z 26024G30KT 17/M06 A2987 RMK A01 T01701055  RH  021%=      5-min Rain = 0
KCL2 232048Z 27030G39KT 17/M06 A2987 RMK A01 T01721059  RH  020%=      5-min Rain = 0
KCL2 232049Z 28028G35KT 17/M06 A2987 RMK A01 T01721062  RH  020%=      5-min Rain = 0
KCL2 232050Z 28025G32KT 17/M06 A2988 RMK A01 T01721063  RH  020%=      5-min Rain = 0
KCL2 232051Z 28028G35KT 17/M06 A2987 RMK A01 T01741063  RH  019%=      5-min Rain = 0
KCL2 232052Z 28024G29KT 17/M07 A2987 RMK A01 T01721069  RH  019%=      5-min Rain = 0
KCL2 232053Z 27025G33KT 17/M07 A2988 RMK A01 T01711066  RH  019%=      5-min Rain = 0
KCL2 232054Z 28031G38KT 17/M07 A2987 RMK A01 T01711067  RH  019%=      5-min Rain = 0
KCL2 232055Z 28028G35KT 17/M07 A2987 RMK A01 T01691068  RH  019%=      5-min Rain = 0
KCL2 232056Z 27026G31KT 17/M07 A2987 RMK A01 T01691067  RH  019%=      5-min Rain = 0
KCL2 232057Z 27031G39KT 17/M07 A2987 RMK A01 T01691067  RH  019%=      5-min Rain = 0
KCL2 232058Z 28031KT 17/M07 A2987 RMK A01 T01681070  RH  019%=      5-min Rain = 0
KCL2 232059Z 28030G35KT 17/M07 A2987 RMK A01 T01681070  RH  019%=      5-min Rain = 0
KCL2 232100Z 28028KT 17/M07 A2987 RMK A01 T01681070  RH  019%=      5-min Rain = 0
KCL2 232101Z 27028G39KT 17/M07 A2988 RMK A01 T01681071  RH  019%=      5-min Rain = 0
KCL2 232102Z 28032G40KT 17/M07 A2988 RMK A01 T01681070  RH  019%=      5-min Rain = 0
KCL2 232103Z 27027G32KT 17/M07 A2988 RMK A01 T01681071  RH  019%=      5-min Rain = 0
KCL2 232104Z 27024G31KT 17/M07 A2988 RMK A01 T01681071  RH  019%=      5-min Rain = 0
KCL2 232105Z 27022G30KT 17/M07 A2988 RMK A01 T01701065  RH  019%=      5-min Rain = 0
KCL2 232106Z 28022G38KT 17/M06 A2988 RMK A01 T01731063  RH  019%=      5-min Rain = 0
KCL2 232107Z 29025G33KT 17/M07 A2988 RMK A01 T01731067  RH  019%=      5-min Rain = 0
KCL2 232108Z 28026G32KT 17/M07 A2988 RMK A01 T01711068  RH  019%=      5-min Rain = 0
KCL2 232109Z 29027G33KT 17/M07 A2988 RMK A01 T01701069  RH  019%=      5-min Rain = 0
KCL2 232110Z 28026KT 17/M07 A2988 RMK A01 T01691069  RH  019%=      5-min Rain = 0
KCL2 232111Z 27026G35KT 17/M07 A2988 RMK A01 T01701066  RH  019%=      5-min Rain = 0
KCL2 232112Z 27028G34KT 17/M07 A2988 RMK A01 T01711066  RH  019%=      5-min Rain = 0
KCL2 232113Z 28025G32KT 17/M07 A2988 RMK A01 T01711065  RH  019%=      5-min Rain = 0
KCL2 232114Z 28022G30KT 17/M06 A2989 RMK A01 T01731061  RH  020%=      5-min Rain = 0
KCL2 232115Z 28030G41KT 17/M07 A2988 RMK A01 T01741065  RH  019%=      5-min Rain = 0
KCL2 232116Z 28028G36KT 17/M07 A2988 RMK A01 T01711070  RH  019%=      5-min Rain = 0
KCL2 232117Z 27030G39KT 17/M07 A2988 RMK A01 T01681072  RH  019%=      5-min Rain = 0
KCL2 232118Z 28033G41KT 17/M07 A2988 RMK A01 T01671070  RH  019%=      5-min Rain = 0
KCL2 232119Z 28026G34KT 17/M07 A2989 RMK A01 T01671069  RH  019%=      5-min Rain = 0
KCL2 232120Z 28024G31KT 17/M07 A2989 RMK A01 T01671068  RH  019%=      5-min Rain = 0
KCL2 232121Z 28026G33KT 17/M07 A2989 RMK A01 T01691067  RH  019%=      5-min Rain = 0
KCL2 232122Z 28029G36KT 17/M07 A2989 RMK A01 T01701068  RH  019%=      5-min Rain = 0
KCL2 232123Z 28031G39KT 17/M07 A2989 RMK A01 T01691068  RH  019%=      5-min Rain = 0
KCL2 232124Z 28026G38KT 17/M07 A2989 RMK A01 T01691068  RH  019%=      5-min Rain = 0
KCL2 232125Z 27028G35KT 17/M07 A2989 RMK A01 T01701067  RH  019%=      5-min Rain = 0
KCL2 232126Z 27025G33KT 17/M07 A2989 RMK A01 T01691069  RH  019%=      5-min Rain = 0
KCL2 232127Z 27026G31KT 17/M07 A2989 RMK A01 T01691067  RH  019%=      5-min Rain = 0
KCL2 232128Z 29028G33KT 17/M07 A2989 RMK A01 T01701067  RH  019%=      5-min Rain = 0
KCL2 232129Z 28028G34KT 17/M07 A2989 RMK A01 T01711067  RH  019%=      5-min Rain = 0
KCL2 232130Z 28026G32KT 17/M07 A2989 RMK A01 T01701068  RH  019%=      5-min Rain = 0
KCL2 232131Z 28028G34KT 17/M07 A2989 RMK A01 T01701069  RH  019%=      5-min Rain = 0
KCL2 232132Z 28029G35KT 17/M07 A2989 RMK A01 T01701068  RH  019%=      5-min Rain = 0
KCL2 232133Z 28026G33KT 17/M07 A2989 RMK A01 T01711069  RH  019%=      5-min Rain = 0
KCL2 232134Z 27027KT 17/M07 A2989 RMK A01 T01701070  RH  019%=      5-min Rain = 0
KCL2 232135Z 28023G28KT 17/M07 A2989 RMK A01 T01711069  RH  019%=      5-min Rain = 0
KCL2 232136Z 27021KT 17/M07 A2989 RMK A01 T01711067  RH  019%=      5-min Rain = 0
KCL2 232137Z 27020KT 17/M07 A2989 RMK A01 T01731065  RH  019%=      5-min Rain = 0
KCL2 232138Z 28021G27KT 17/M07 A2989 RMK A01 T01741065  RH  019%=      5-min Rain = 0
KCL2 232139Z 28021G30KT 18/M06 A2989 RMK A01 T01751063  RH  019%=      5-min Rain = 0
KCL2 232140Z 28028KT 18/M07 A2989 RMK A01 T01761068  RH  018%=      5-min Rain = 0
KCL2 232141Z 28024G33KT 17/M07 A2989 RMK A01 T01731071  RH  018%=      5-min Rain = 0
KCL2 232142Z 29024G33KT 17/M07 A2989 RMK A01 T01731070  RH  018%=      5-min Rain = 0
KCL2 232143Z 28027G34KT 17/M07 A2989 RMK A01 T01731070  RH  018%=      5-min Rain = 0
KCL2 232144Z 27028G33KT 17/M07 A2989 RMK A01 T01731070  RH  018%=      5-min Rain = 0
KCL2 232145Z 26025KT 17/M07 A2989 RMK A01 T01721071  RH  018%=      5-min Rain = 0
KCL2 232146Z 27022KT 17/M07 A2989 RMK A01 T01721069  RH  019%=      5-min Rain = 0
KCL2 232147Z 28017G23KT 17/M06 A2989 RMK A01 T01741062  RH  019%=      5-min Rain = 0
KCL2 232148Z 29021G27KT 18/M06 A2989 RMK A01 T01771062  RH  019%=      5-min Rain = 0
KCL2 232149Z 28016KT 18/M06 A2989 RMK A01 T01771063  RH  019%=      5-min Rain = 0
KCL2 232150Z 27020G32KT 18/M06 A2989 RMK A01 T01791058  RH  019%=      5-min Rain = 0
KCL2 232151Z 28021G27KT 18/M07 A2989 RMK A01 T01801065  RH  018%=      5-min Rain = 0
KCL2 232152Z 28024G31KT 18/M07 A2989 RMK A01 T01791066  RH  018%=      5-min Rain = 0
KCL2 232153Z 27022KT 18/M07 A2989 RMK A01 T01771068  RH  018%=      5-min Rain = 0
KCL2 232154Z 27020G25KT 18/M07 A2989 RMK A01 T01771067  RH  018%=      5-min Rain = 0
KCL2 232155Z 29024G31KT 18/M07 A2989 RMK A01 T01771068  RH  018%=      5-min Rain = 0
KCL2 232156Z 27027KT 18/M07 A2989 RMK A01 T01761069  RH  018%=      5-min Rain = 0
KCL2 232157Z 27028G36KT 17/M07 A2989 RMK A01 T01741073  RH  018%=      5-min Rain = 0
KCL2 232158Z 27021KT 17/M07 A2989 RMK A01 T01731069  RH  018%=      5-min Rain = 0
KCL2 232159Z 27019KT 18/M06 A299 RMK A01 T01751064  RH  019%=      5-min Rain = 0
KCL2 232200Z 28021G27KT 18/M06 A299 RMK A01 T01781062  RH  019%=      5-min Rain = 0
KCL2 232201Z 28025G31KT 18/M07 A2989 RMK A01 T01781068  RH  018%=      5-min Rain = 0
KCL2 232202Z 28025KT 18/M07 A2989 RMK A01 T01761072  RH  018%=      5-min Rain = 0
KCL2 232203Z 27026G31KT 18/M07 A2989 RMK A01 T01751072  RH  018%=      5-min Rain = 0
KCL2 232204Z 27021G26KT 17/M07 A2989 RMK A01 T01741071  RH  018%=      5-min Rain = 0
KCL2 232205Z 28026G31KT 18/M07 A2989 RMK A01 T01751070  RH  018%=      5-min Rain = 0
KCL2 232206Z 28025G30KT 18/M07 A2989 RMK A01 T01751072  RH  018%=      5-min Rain = 0
KCL2 232207Z 27026G31KT 17/M07 A2989 RMK A01 T01741071  RH  018%=      5-min Rain = 0
KCL2 232208Z 28028G35KT 17/M07 A299 RMK A01 T01741072  RH  018%=      5-min Rain = 0
KCL2 232209Z 29023G28KT 17/M07 A299 RMK A01 T01731071  RH  018%=      5-min Rain = 0
KCL2 232210Z 29021G26KT 17/M07 A299 RMK A01 T01741068  RH  018%=      5-min Rain = 0
KCL2 232211Z 28021G27KT 17/M07 A299 RMK A01 T01741067  RH  019%=      5-min Rain = 0
KCL2 232212Z 28023G32KT 17/M07 A299 RMK A01 T01741069  RH  018%=      5-min Rain = 0
KCL2 232213Z 28029G35KT 17/M07 A299 RMK A01 T01741070  RH  018%=      5-min Rain = 0
KCL2 232214Z 28026G34KT 17/M07 A299 RMK A01 T01741072  RH  018%=      5-min Rain = 0
KCL2 232215Z 28030G38KT 17/M07 A299 RMK A01 T01731073  RH  018%=      5-min Rain = 0
KCL2 232216Z 29029G35KT 17/M08 A299 RMK A01 T01721075  RH  018%=      5-min Rain = 0
KCL2 232217Z 29029G36KT 17/M07 A299 RMK A01 T01721074  RH  018%=      5-min Rain = 0
KCL2 232218Z 28026G32KT 17/M07 A2991 RMK A01 T01731074  RH  018%=      5-min Rain = 0
KCL2 232219Z 28021KT 17/M08 A2991 RMK A01 T01721075  RH  018%=      5-min Rain = 0
KCL2 232220Z 28029G39KT 17/M07 A2991 RMK A01 T01721074  RH  018%=      5-min Rain = 0
KCL2 232221Z 29023G29KT 17/M07 A2991 RMK A01 T01711074  RH  018%=      5-min Rain = 0
KCL2 232222Z 29025G33KT 17/M07 A2991 RMK A01 T01711073  RH  018%=      5-min Rain = 0
KCL2 232223Z 29026G32KT 17/M07 A2991 RMK A01 T01711073  RH  018%=      5-min Rain = 0
KCL2 232224Z 29026G31KT 17/M07 A2991 RMK A01 T01701074  RH  018%=      5-min Rain = 0
KCL2 232225Z 28025G33KT 17/M07 A2991 RMK A01 T01701074  RH  018%=      5-min Rain = 0
KCL2 232226Z 28023G28KT 17/M07 A2991 RMK A01 T01711073  RH  018%=      5-min Rain = 0
KCL2 232227Z 28028G38KT 17/M07 A2991 RMK A01 T01721074  RH  018%=      5-min Rain = 0
KCL2 232228Z 28025G32KT 17/M08 A2991 RMK A01 T01711076  RH  018%=      5-min Rain = 0
KCL2 232229Z 28029G38KT 17/M07 A2991 RMK A01 T01711074  RH  018%=      5-min Rain = 0
KCL2 232230Z 28026G34KT 17/M08 A2991 RMK A01 T01701076  RH  018%=      5-min Rain = 0
KCL2 232231Z 28032G38KT 17/M07 A2991 RMK A01 T01701074  RH  018%=      5-min Rain = 0
KCL2 232232Z 29026G34KT 17/M08 A2991 RMK A01 T01691075  RH  018%=      5-min Rain = 0
KCL2 232233Z 28023G29KT 17/M07 A2992 RMK A01 T01691073  RH  018%=      5-min Rain = 0
KCL2 232234Z 29025G36KT 17/M07 A2992 RMK A01 T01701072  RH  018%=      5-min Rain = 0
KCL2 232235Z 29028G33KT 17/M08 A2992 RMK A01 T01711075  RH  018%=      5-min Rain = 0
KCL2 232236Z 28028G34KT 17/M08 A2992 RMK A01 T01701076  RH  018%=      5-min Rain = 0
KCL2 232237Z 29025G34KT 17/M08 A2992 RMK A01 T01691077  RH  018%=      5-min Rain = 0
KCL2 232238Z 28023G31KT 17/M08 A2992 RMK A01 T01691075  RH  018%=      5-min Rain = 0
KCL2 232239Z 29028G33KT 17/M08 A2992 RMK A01 T01691075  RH  018%=      5-min Rain = 0
KCL2 232240Z 28029G36KT 17/M08 A2992 RMK A01 T01681076  RH  018%=      5-min Rain = 0
KCL2 232241Z 28027G32KT 17/M08 A2992 RMK A01 T01681077  RH  018%=      5-min Rain = 0
KCL2 232242Z 28024G30KT 17/M08 A2992 RMK A01 T01671077  RH  018%=      5-min Rain = 0
KCL2 232243Z 29026G31KT 17/M08 A2992 RMK A01 T01671076  RH  018%=      5-min Rain = 0
KCL2 232244Z 28026G31KT 17/M08 A2992 RMK A01 T01671075  RH  018%=      5-min Rain = 0
KCL2 232245Z 29025KT 17/M07 A2992 RMK A01 T01671073  RH  019%=      5-min Rain = 0
KCL2 232246Z 29021G27KT 17/M07 A2993 RMK A01 T01671071  RH  019%=      5-min Rain = 0
KCL2 232247Z 28021G29KT 17/M07 A2993 RMK A01 T01671069  RH  019%=      5-min Rain = 0
KCL2 232248Z 28022G27KT 17/M07 A2993 RMK A01 T01681071  RH  019%=      5-min Rain = 0
KCL2 232249Z 28021G26KT 17/M07 A2993 RMK A01 T01681072  RH  019%=      5-min Rain = 0
KCL2 232250Z 28022G27KT 17/M07 A2993 RMK A01 T01681071  RH  019%=      5-min Rain = 0
KCL2 232251Z 29020G25KT 17/M07 A2993 RMK A01 T01681070  RH  019%=      5-min Rain = 0
KCL2 232252Z 29019G29KT 17/M07 A2993 RMK A01 T01691068  RH  019%=      5-min Rain = 0
KCL2 232253Z 29025G31KT 17/M07 A2993 RMK A01 T01681069  RH  019%=      5-min Rain = 0
KCL2 232254Z 29021G27KT 17/M07 A2993 RMK A01 T01681070  RH  019%=      5-min Rain = 0
KCL2 232255Z 29025G30KT 17/M07 A2993 RMK A01 T01671070  RH  019%=      5-min Rain = 0
KCL2 232256Z 29026G31KT 17/M07 A2993 RMK A01 T01671071  RH  019%=      5-min Rain = 0
KCL2 232257Z 29025G30KT 17/M07 A2993 RMK A01 T01671071  RH  019%=      5-min Rain = 0
KCL2 232258Z 28023KT 17/M07 A2993 RMK A01 T01671070  RH  019%=      5-min Rain = 0
KCL2 232259Z 28020G25KT 17/M07 A2994 RMK A01 T01661069  RH  019%=      5-min Rain = 0
KCL2 232300Z 29024KT 17/M07 A2994 RMK A01 T01671067  RH  020%=      5-min Rain = 0
KCL2 232301Z 29021G26KT 17/M07 A2994 RMK A01 T01661067  RH  020%=      5-min Rain = 0
KCL2 232302Z 28021G27KT 17/M07 A2994 RMK A01 T01661066  RH  020%=      5-min Rain = 0
KCL2 232303Z 29020G26KT 17/M07 A2994 RMK A01 T01661066  RH  020%=      5-min Rain = 0
KCL2 232304Z 29021KT 17/M07 A2994 RMK A01 T01661065  RH  020%=      5-min Rain = 0
KCL2 232305Z 29021KT 17/M07 A2994 RMK A01 T01661065  RH  020%=      5-min Rain = 0
KCL2 232306Z 28016KT 17/M06 A2994 RMK A01 T01661063  RH  020%=      5-min Rain = 0
KCL2 232307Z 29016G25KT 17/M06 A2995 RMK A01 T01671059  RH  021%=      5-min Rain = 0
KCL2 232308Z 29021G26KT 17/M06 A2994 RMK A01 T01681062  RH  020%=      5-min Rain = 0
KCL2 232309Z 29020G26KT 17/M06 A2994 RMK A01 T01671063  RH  020%=      5-min Rain = 0
KCL2 232310Z 29019KT 17/M06 A2995 RMK A01 T01671061  RH  020%=      5-min Rain = 0
KCL2 232311Z 29019G27KT 17/M06 A2995 RMK A01 T01661061  RH  021%=      5-min Rain = 0
KCL2 232312Z 29020KT 17/M06 A2995 RMK A01 T01661062  RH  020%=      5-min Rain = 0
KCL2 232313Z 29023G28KT 17/M06 A2994 RMK A01 T01661062  RH  020%=      5-min Rain = 0
KCL2 232314Z 29020KT 17/M06 A2995 RMK A01 T01661062  RH  020%=      5-min Rain = 0
KCL2 232315Z 29017KT 17/M06 A2995 RMK A01 T01651060  RH  021%=      5-min Rain = 0
KCL2 232316Z 29015KT 17/M06 A2995 RMK A01 T01651058  RH  021%=      5-min Rain = 0
KCL2 232317Z 30019G24KT 17/M06 A2995 RMK A01 T01651056  RH  021%=      5-min Rain = 0
KCL2 232318Z 30021G26KT 17/M06 A2995 RMK A01 T01651055  RH  022%=      5-min Rain = 0
KCL2 232319Z 29021G28KT 17/M06 A2995 RMK A01 T01651056  RH  022%=      5-min Rain = 0
KCL2 232320Z 29025G31KT 16/M06 A2995 RMK A01 T01641055  RH  022%=      5-min Rain = 0
KCL2 232321Z 29021G26KT 16/M05 A2995 RMK A01 T01641054  RH  022%=      5-min Rain = 0
KCL2 232322Z 28018G24KT 16/M05 A2995 RMK A01 T01641052  RH  022%=      5-min Rain = 0
KCL2 232323Z 29019KT 16/M05 A2995 RMK A01 T01641052  RH  022%=      5-min Rain = 0
KCL2 232324Z 30016G21KT 16/M05 A2996 RMK A01 T01641051  RH  022%=      5-min Rain = 0
KCL2 232325Z 30016G21KT 16/M05 A2996 RMK A01 T01641049  RH  023%=      5-min Rain = 0
KCL2 232326Z 30014KT 16/M05 A2996 RMK A01 T01641048  RH  023%=      5-min Rain = 0
KCL2 232327Z 30016KT 16/M05 A2996 RMK A01 T01641047  RH  023%=      5-min Rain = 0
KCL2 232328Z 30019G24KT 16/M05 A2996 RMK A01 T01631048  RH  023%=      5-min Rain = 0
KCL2 232329Z 29019G26KT 16/M05 A2996 RMK A01 T01631048  RH  023%=      5-min Rain = 0
KCL2 232330Z 29021KT 16/M05 A2996 RMK A01 T01621048  RH  023%=      5-min Rain = 0
KCL2 232331Z 30021G28KT 16/M05 A2996 RMK A01 T01621048  RH  023%=      5-min Rain = 0
KCL2 232332Z 30019KT 16/M05 A2996 RMK A01 T01611047  RH  024%=      5-min Rain = 0
KCL2 232333Z 30019G24KT 16/M05 A2996 RMK A01 T01611045  RH  024%=      5-min Rain = 0
KCL2 232334Z 30018KT 16/M05 A2996 RMK A01 T01601045  RH  024%=      5-min Rain = 0
KCL2 232335Z 30014KT 16/M04 A2997 RMK A01 T01601043  RH  025%=      5-min Rain = 0
KCL2 232336Z 30014G19KT 16/M04 A2997 RMK A01 T01591041  RH  025%=      5-min Rain = 0
KCL2 232337Z 30015KT 16/M04 A2997 RMK A01 T01591041  RH  025%=      5-min Rain = 0
KCL2 232338Z 30016KT 16/M04 A2997 RMK A01 T01591041  RH  025%=      5-min Rain = 0
KCL2 232339Z 31021G28KT 16/M04 A2997 RMK A01 T01591041  RH  025%=      5-min Rain = 0
KCL2 232340Z 30015KT 16/M04 A2997 RMK A01 T01591041  RH  025%=      5-min Rain = 0
KCL2 232341Z 30019KT 16/M04 A2997 RMK A01 T01581041  RH  025%=      5-min Rain = 0
KCL2 232342Z 30019G24KT 16/M04 A2997 RMK A01 T01581040  RH  025%=      5-min Rain = 0
KCL2 232343Z 30017KT 16/M04 A2997 RMK A01 T01581040  RH  025%=      5-min Rain = 0
KCL2 232344Z 30018KT 16/M04 A2997 RMK A01 T01571039  RH  026%=      5-min Rain = 0
KCL2 232345Z 30015G20KT 16/M04 A2997 RMK A01 T01571039  RH  026%=      5-min Rain = 0
KCL2 232346Z 31015G24KT 16/M04 A2997 RMK A01 T01571038  RH  026%=      5-min Rain = 0
KCL2 232347Z 30019KT 16/M04 A2997 RMK A01 T01561039  RH  026%=      5-min Rain = 0
KCL2 232348Z 30017KT 16/M04 A2997 RMK A01 T01561039  RH  026%=      5-min Rain = 0
KCL2 232349Z 30018KT 16/M04 A2997 RMK A01 T01561039  RH  026%=      5-min Rain = 0
KCL2 232350Z 30014KT 16/M04 A2997 RMK A01 T01561038  RH  026%=      5-min Rain = 0
KCL2 232351Z 30016KT 16/M04 A2997 RMK A01 T01551038  RH  026%=      5-min Rain = 0
KCL2 232352Z 30015KT 16/M04 A2997 RMK A01 T01551038  RH  026%=      5-min Rain = 0
KCL2 232353Z 30018G23KT 15/M04 A2997 RMK A01 T01541037  RH  026%=      5-min Rain = 0
KCL2 232354Z 30018KT 16/M04 A2998 RMK A01 T01551037  RH  027%=      5-min Rain = 0
KCL2 232355Z 29018KT 15/M04 A2998 RMK A01 T01541037  RH  027%=      5-min Rain = 0
KCL2 232356Z 30018KT 15/M04 A2998 RMK A01 T01541037  RH  027%=      5-min Rain = 0
KCL2 232357Z 29017KT 15/M04 A2998 RMK A01 T01541036  RH  027%=      5-min Rain = 0
KCL2 232358Z 30015KT 15/M04 A2998 RMK A01 T01541036  RH  027%=      5-min Rain = 0
KCL2 232359Z 29016G21KT 15/M04 A2998 RMK A01 T01541036  RH  027%=      5-min Rain = 0
KCL2 240000Z 29017G22KT 15/M04 A2998 RMK A01 T01541037  RH  027%=      5-min Rain = 0
KCL2 240001Z 30018G23KT 15/M04 A2998 RMK A01 T01541037  RH  027%=      5-min Rain = 0
KCL2 240002Z 29016KT 15/M04 A2998 RMK A01 T01541036  RH  027%=      5-min Rain = 0
KCL2 240003Z 30014KT 15/M04 A2998 RMK A01 T01531036  RH  027%=      5-min Rain = 0
KCL2 240004Z 30014KT 15/M04 A2998 RMK A01 T01521036  RH  027%=      5-min Rain = 0
KCL2 240005Z 30013KT 15/M04 A2998 RMK A01 T01521035  RH  027%=      5-min Rain = 0
KCL2 240006Z 30016KT 15/M04 A2998 RMK A01 T01511035  RH  028%=      5-min Rain = 0
KCL2 240007Z 29016KT 15/M03 A2998 RMK A01 T01511034  RH  028%=      5-min Rain = 0
KCL2 240008Z 29013KT 15/M03 A2998 RMK A01 T01511034  RH  028%=      5-min Rain = 0
KCL2 240009Z 29011KT 15/M03 A2998 RMK A01 T01501033  RH  028%=      5-min Rain = 0
KCL2 240010Z 29013KT 15/M03 A2998 RMK A01 T01491033  RH  028%=      5-min Rain = 0
KCL2 240011Z 29015KT 15/M03 A2998 RMK A01 T01481033  RH  028%=      5-min Rain = 0
KCL2 240012Z 30017KT 15/M03 A2998 RMK A01 T01481033  RH  028%=      5-min Rain = 0
KCL2 240013Z 29014KT 15/M03 A2998 RMK A01 T01481033  RH  028%=      5-min Rain = 0
KCL2 240014Z 30016G21KT 15/M03 A2999 RMK A01 T01491032  RH  029%=      5-min Rain = 0
KCL2 240015Z 31013KT 15/M03 A2999 RMK A01 T01481032  RH  029%=      5-min Rain = 0
KCL2 240016Z 32014KT 15/M03 A2999 RMK A01 T01471032  RH  029%=      5-min Rain = 0
KCL2 240017Z 32012KT 15/M03 A2999 RMK A01 T01461030  RH  029%=      5-min Rain = 0
KCL2 240018Z 31013KT 15/M03 A2999 RMK A01 T01451027  RH  030%=      5-min Rain = 0
KCL2 240019Z 32013KT 14/M02 A2999 RMK A01 T01431024  RH  032%=      5-min Rain = 0
KCL2 240020Z 32011KT 14/M02 A2999 RMK A01 T01421020  RH  033%=      5-min Rain = 0
KCL2 240021Z 32011KT 14/M02 A30 RMK A01 T01401019  RH  033%=      5-min Rain = 0
KCL2 240022Z 32011KT 14/M02 A30 RMK A01 T01391018  RH  034%=      5-min Rain = 0
KCL2 240023Z 32010KT 14/M02 A30 RMK A01 T01371017  RH  034%=      5-min Rain = 0
KCL2 240024Z 32012KT 14/M02 A30 RMK A01 T01361016  RH  035%=      5-min Rain = 0
KCL2 240025Z 33013KT 14/M02 A30 RMK A01 T01361015  RH  035%=      5-min Rain = 0
KCL2 240026Z 32013KT 14/M02 A30 RMK A01 T01361015  RH  035%=      5-min Rain = 0
KCL2 240027Z 33011KT 14/M02 A30 RMK A01 T01351015  RH  035%=      5-min Rain = 0
KCL2 240028Z 32011KT 14/M01 A30 RMK A01 T01351014  RH  036%=      5-min Rain = 0
KCL2 240029Z 32011KT 13/M01 A30 RMK A01 T01341014  RH  036%=      5-min Rain = 0
KCL2 240030Z 33011KT 13/M01 A30 RMK A01 T01321014  RH  036%=      5-min Rain = 0
KCL2 240031Z 33011KT 13/M01 A30 RMK A01 T01321014  RH  036%=      5-min Rain = 0
KCL2 240032Z 33010KT 13/M01 A30 RMK A01 T01321014  RH  037%=      5-min Rain = 0
KCL2 240033Z 33011KT 13/M01 A30 RMK A01 T01311013  RH  037%=      5-min Rain = 0
KCL2 240034Z 33011KT 13/M01 A30 RMK A01 T01311014  RH  037%=      5-min Rain = 0
KCL2 240035Z 33009KT 13/M01 A3001 RMK A01 T01311013  RH  037%=      5-min Rain = 0
KCL2 240036Z 33010KT 13/M01 A3001 RMK A01 T01301014  RH  037%=      5-min Rain = 0
KCL2 240037Z 33010KT 13/M01 A3001 RMK A01 T01291013  RH  037%=      5-min Rain = 0
KCL2 240038Z 33009KT 13/M01 A3001 RMK A01 T01281014  RH  037%=      5-min Rain = 0
KCL2 240039Z 33009KT 13/M01 A3001 RMK A01 T01271013  RH  038%=      5-min Rain = 0
KCL2 240040Z 33010KT 13/M01 A3001 RMK A01 T01261013  RH  038%=      5-min Rain = 0
KCL2 240041Z 33011KT 13/M01 A3001 RMK A01 T01251013  RH  038%=      5-min Rain = 0
KCL2 240042Z 33009G14KT 13/M01 A3001 RMK A01 T01261013  RH  038%=      5-min Rain = 0
KCL2 240043Z 33011KT 13/M01 A3001 RMK A01 T01251013  RH  038%=      5-min Rain = 0
KCL2 240044Z 33009KT 13/M01 A3002 RMK A01 T01251013  RH  038%=      5-min Rain = 0
KCL2 240045Z 33009KT 13/M01 A3002 RMK A01 T01251013  RH  038%=      5-min Rain = 0
KCL2 240046Z 33010KT 12/M01 A3002 RMK A01 T01241014  RH  038%=      5-min Rain = 0
KCL2 240047Z 33011KT 12/M01 A3002 RMK A01 T01241013  RH  038%=      5-min Rain = 0
KCL2 240048Z 33008KT 12/M01 A3002 RMK A01 T01241014  RH  038%=      5-min Rain = 0
KCL2 240049Z 34009KT 12/M01 A3002 RMK A01 T01231014  RH  039%=      5-min Rain = 0
KCL2 240050Z 34009KT 12/M01 A3002 RMK A01 T01211014  RH  039%=      5-min Rain = 0
KCL2 240051Z 34012KT 12/M01 A3002 RMK A01 T01211014  RH  039%=      5-min Rain = 0
KCL2 240052Z 34013KT 12/M01 A3003 RMK A01 T01211014  RH  039%=      5-min Rain = 0
KCL2 240053Z 34011G16KT 12/M01 A3003 RMK A01 T01221014  RH  039%=      5-min Rain = 0
KCL2 240054Z 33012KT 12/M01 A3003 RMK A01 T01221014  RH  039%=      5-min Rain = 0
KCL2 240055Z 34013KT 12/M01 A3003 RMK A01 T01221014  RH  039%=      5-min Rain = 0
KCL2 240056Z 34011KT 12/M02 A3003 RMK A01 T01221015  RH  039%=      5-min Rain = 0
KCL2 240057Z 33011KT 12/M02 A3003 RMK A01 T01211015  RH  039%=      5-min Rain = 0
KCL2 240058Z 33010KT 12/M02 A3003 RMK A01 T01211015  RH  039%=      5-min Rain = 0
KCL2 240059Z 34011KT 12/M02 A3003 RMK A01 T01201015  RH  039%=      5-min Rain = 0
KCL2 240100Z 33012KT 12/M02 A3003 RMK A01 T01191015  RH  039%=      5-min Rain = 0
KCL2 240101Z 34010KT 12/M02 A3003 RMK A01 T01181016  RH  039%=      5-min Rain = 0
KCL2 240102Z 33010KT 12/M02 A3003 RMK A01 T01181015  RH  039%=      5-min Rain = 0
KCL2 240103Z 33012KT 12/M02 A3004 RMK A01 T01181015  RH  040%=      5-min Rain = 0
KCL2 240104Z 33012KT 12/M02 A3004 RMK A01 T01181015  RH  040%=      5-min Rain = 0
KCL2 240105Z 34012KT 12/M02 A3004 RMK A01 T01181015  RH  039%=      5-min Rain = 0
KCL2 240106Z 33012KT 12/M02 A3004 RMK A01 T01181016  RH  039%=      5-min Rain = 0
KCL2 240107Z 34010KT 12/M02 A3004 RMK A01 T01181016  RH  039%=      5-min Rain = 0
KCL2 240108Z 33009KT 12/M02 A3004 RMK A01 T01161016  RH  040%=      5-min Rain = 0
KCL2 240109Z 33008KT 12/M02 A3004 RMK A01 T01161016  RH  040%=      5-min Rain = 0
KCL2 240110Z 34009KT 12/M02 A3004 RMK A01 T01151016  RH  040%=      5-min Rain = 0
KCL2 240111Z 34009KT 11/M02 A3004 RMK A01 T01131016  RH  040%=      5-min Rain = 0
KCL2 240112Z 34010KT 11/M02 A3004 RMK A01 T01121016  RH  041%=      5-min Rain = 0
KCL2 240113Z 34011KT 11/M02 A3004 RMK A01 T01121016  RH  041%=      5-min Rain = 0
KCL2 240114Z 35012G17KT 11/M02 A3004 RMK A01 T01121015  RH  041%=      5-min Rain = 0
KCL2 240115Z 34012KT 11/M02 A3005 RMK A01 T01121015  RH  041%=      5-min Rain = 0
KCL2 240116Z 34012G17KT 11/M02 A3005 RMK A01 T01131015  RH  041%=      5-min Rain = 0
KCL2 240117Z 35014KT 11/M02 A3005 RMK A01 T01121015  RH  041%=      5-min Rain = 0
KCL2 240118Z 34014G19KT 11/M02 A3005 RMK A01 T01121015  RH  041%=      5-min Rain = 0
KCL2 240119Z 34015KT 11/M02 A3005 RMK A01 T01121015  RH  041%=      5-min Rain = 0
KCL2 240120Z 33013KT 11/M01 A3005 RMK A01 T01111014  RH  042%=      5-min Rain = 0
KCL2 240121Z 34016KT 11/M02 A3005 RMK A01 T01101015  RH  042%=      5-min Rain = 0
KCL2 240122Z 34017KT 11/M02 A3005 RMK A01 T01101015  RH  042%=      5-min Rain = 0
KCL2 240123Z 34015KT 11/M01 A3005 RMK A01 T01101014  RH  042%=      5-min Rain = 0
KCL2 240124Z 34013KT 11/M01 A3005 RMK A01 T01091014  RH  042%=      5-min Rain = 0
KCL2 240125Z 34012KT 11/M01 A3005 RMK A01 T01081014  RH  043%=      5-min Rain = 0
KCL2 240126Z 34013KT 11/M01 A3005 RMK A01 T01071014  RH  043%=      5-min Rain = 0
KCL2 240127Z 34013KT 11/M01 A3006 RMK A01 T01071014  RH  043%=      5-min Rain = 0
KCL2 240128Z 34013KT 11/M01 A3006 RMK A01 T01061014  RH  043%=      5-min Rain = 0
KCL2 240129Z 35012KT 11/M01 A3006 RMK A01 T01051013  RH  044%=      5-min Rain = 0
KCL2 240130Z 35010KT 11/M01 A3006 RMK A01 T01051013  RH  044%=      5-min Rain = 0
KCL2 240131Z 34010KT 10/M01 A3006 RMK A01 T01031013  RH  044%=      5-min Rain = 0
KCL2 240132Z 35012KT 10/M01 A3006 RMK A01 T01031013  RH  044%=      5-min Rain = 0
KCL2 240133Z 35012KT 10/M01 A3006 RMK A01 T01031013  RH  044%=      5-min Rain = 0
KCL2 240134Z 35009KT 10/M01 A3007 RMK A01 T01031013  RH  044%=      5-min Rain = 0
KCL2 240135Z 34013G18KT 10/M01 A3007 RMK A01 T01031013  RH  044%=      5-min Rain = 0
KCL2 240136Z 35013KT 10/M01 A3007 RMK A01 T01021013  RH  045%=      5-min Rain = 0
KCL2 240137Z 34013G18KT 10/M01 A3007 RMK A01 T01021013  RH  044%=      5-min Rain = 0
KCL2 240138Z 34013KT 10/M01 A3007 RMK A01 T01021013  RH  045%=      5-min Rain = 0
KCL2 240139Z 34012KT 10/M01 A3007 RMK A01 T01021013  RH  045%=      5-min Rain = 0
KCL2 240140Z 34013KT 10/M01 A3007 RMK A01 T01021013  RH  045%=      5-min Rain = 0
KCL2 240141Z 34013KT 10/M01 A3007 RMK A01 T01011014  RH  045%=      5-min Rain = 0
KCL2 240142Z 34013KT 10/M01 A3007 RMK A01 T01011013  RH  045%=      5-min Rain = 0
KCL2 240143Z 34011KT 10/M01 A3007 RMK A01 T01001013  RH  045%=      5-min Rain = 0
KCL2 240144Z 35012KT 10/M01 A3007 RMK A01 T01001013  RH  045%=      5-min Rain = 0
KCL2 240145Z 34014KT 10/M01 A3007 RMK A01 T00991013  RH  045%=      5-min Rain = 0
KCL2 240146Z 34012KT 10/M01 A3007 RMK A01 T00991013  RH  046%=      5-min Rain = 0
KCL2 240147Z 34011KT 10/M01 A3007 RMK A01 T00981014  RH  046%=      5-min Rain = 0
KCL2 240148Z 34011KT 10/M01 A3007 RMK A01 T00981014  RH  046%=      5-min Rain = 0
KCL2 240149Z 34011KT 10/M01 A3007 RMK A01 T00971014  RH  046%=      5-min Rain = 0
KCL2 240150Z 34011KT 10/M01 A3007 RMK A01 T00971014  RH  046%=      5-min Rain = 0
KCL2 240151Z 34011KT 10/M01 A3008 RMK A01 T00961014  RH  046%=      5-min Rain = 0
KCL2 240152Z 34011KT 10/M01 A3008 RMK A01 T00951014  RH  046%=      5-min Rain = 0
KCL2 240153Z 35011KT 10/M01 A3008 RMK A01 T00951014  RH  047%=      5-min Rain = 0
KCL2 240154Z 34011KT 10/M01 A3008 RMK A01 T00951014  RH  047%=      5-min Rain = 0
KCL2 240155Z 34010KT 10/M01 A3008 RMK A01 T00951014  RH  047%=      5-min Rain = 0
KCL2 240156Z 35011KT 09/M01 A3008 RMK A01 T00941014  RH  047%=      5-min Rain = 0
KCL2 240157Z 34009KT 09/M01 A3008 RMK A01 T00941014  RH  047%=      5-min Rain = 0
KCL2 240158Z 35011KT 09/M01 A3008 RMK A01 T00931014  RH  047%=      5-min Rain = 0
KCL2 240159Z 34010KT 09/M01 A3008 RMK A01 T00921014  RH  048%=      5-min Rain = 0
KCL2 240200Z 34012KT 09/M01 A3008 RMK A01 T00921014  RH  048%=      5-min Rain = 0
KCL2 240201Z 35011KT 09/M01 A3008 RMK A01 T00921014  RH  048%=      5-min Rain = 0
KCL2 240202Z 34011KT 09/M01 A3008 RMK A01 T00921014  RH  048%=      5-min Rain = 0
KCL2 240203Z 35011KT 09/M01 A3008 RMK A01 T00921014  RH  048%=      5-min Rain = 0
KCL2 240204Z 35009KT 09/M01 A3008 RMK A01 T00911014  RH  048%=      5-min Rain = 0
KCL2 240205Z 35010KT 09/M01 A3008 RMK A01 T00911014  RH  048%=      5-min Rain = 0
KCL2 240206Z 35011KT 09/M02 A3008 RMK A01 T00901015  RH  048%=      5-min Rain = 0
KCL2 240207Z 35010KT 09/M01 A3008 RMK A01 T00901014  RH  048%=      5-min Rain = 0
KCL2 240208Z 35010KT 09/M01 A3009 RMK A01 T00901014  RH  048%=      5-min Rain = 0
KCL2 240209Z 35009KT 09/M01 A3009 RMK A01 T00891014  RH  048%=      5-min Rain = 0
KCL2 240210Z 34009KT 09/M01 A3009 RMK A01 T00881014  RH  049%=      5-min Rain = 0
KCL2 240211Z 34011KT 09/M01 A3009 RMK A01 T00871014  RH  049%=      5-min Rain = 0
KCL2 240212Z 35011KT 09/M02 A3009 RMK A01 T00871015  RH  049%=      5-min Rain = 0
KCL2 240213Z 34011KT 09/M01 A3009 RMK A01 T00881014  RH  049%=      5-min Rain = 0
KCL2 240214Z 34013KT 09/M01 A3009 RMK A01 T00881014  RH  049%=      5-min Rain = 0
KCL2 240215Z 34013KT 09/M02 A3009 RMK A01 T00881015  RH  048%=      5-min Rain = 0
KCL2 240216Z 34013KT 09/M02 A3009 RMK A01 T00881015  RH  048%=      5-min Rain = 0
KCL2 240217Z 35012KT 09/M02 A3009 RMK A01 T00881015  RH  048%=      5-min Rain = 0
KCL2 240218Z 35013KT 09/M02 A301 RMK A01 T00881015  RH  049%=      5-min Rain = 0
KCL2 240219Z 34012KT 09/M02 A301 RMK A01 T00881015  RH  048%=      5-min Rain = 0
KCL2 240220Z 34014KT 09/M02 A301 RMK A01 T00871015  RH  048%=      5-min Rain = 0
KCL2 240221Z 35012KT 09/M02 A301 RMK A01 T00871016  RH  048%=      5-min Rain = 0
KCL2 240222Z 35012G17KT 09/M02 A301 RMK A01 T00871015  RH  049%=      5-min Rain = 0
KCL2 240223Z 35013KT 09/M02 A301 RMK A01 T00861016  RH  049%=      5-min Rain = 0
KCL2 240224Z 35012KT 09/M02 A301 RMK A01 T00861016  RH  049%=      5-min Rain = 0
KCL2 240225Z 35012KT 09/M02 A301 RMK A01 T00851016  RH  049%=      5-min Rain = 0
KCL2 240226Z 35012KT 09/M02 A301 RMK A01 T00851016  RH  049%=      5-min Rain = 0
KCL2 240227Z 35012KT 09/M02 A301 RMK A01 T00851017  RH  049%=      5-min Rain = 0
KCL2 240228Z 35012KT 09/M02 A301 RMK A01 T00851017  RH  049%=      5-min Rain = 0
KCL2 240229Z 35012KT 09/M02 A301 RMK A01 T00851016  RH  049%=      5-min Rain = 0
KCL2 240230Z 35012KT 08/M02 A301 RMK A01 T00841016  RH  049%=      5-min Rain = 0
KCL2 240231Z 36012KT 08/M02 A3011 RMK A01 T00841017  RH  049%=      5-min Rain = 0
KCL2 240232Z 35012KT 08/M02 A3011 RMK A01 T00841017  RH  049%=      5-min Rain = 0
KCL2 240233Z 35011KT 08/M02 A3011 RMK A01 T00831017  RH  049%=      5-min Rain = 0
KCL2 240234Z 36011KT 08/M02 A3011 RMK A01 T00831017  RH  049%=      5-min Rain = 0
KCL2 240235Z 35012KT 08/M02 A3011 RMK A01 T00831017  RH  049%=      5-min Rain = 0
KCL2 240236Z 35012G17KT 08/M02 A3011 RMK A01 T00831018  RH  049%=      5-min Rain = 0
KCL2 240237Z 35011KT 08/M02 A3011 RMK A01 T00831018  RH  049%=      5-min Rain = 0
KCL2 240238Z 35012KT 08/M02 A3011 RMK A01 T00831018  RH  049%=      5-min Rain = 0
KCL2 240239Z 35009KT 08/M02 A3011 RMK A01 T00831018  RH  049%=      5-min Rain = 0
KCL2 240240Z 36011KT 08/M02 A3011 RMK A01 T00821018  RH  049%=      5-min Rain = 0
KCL2 240241Z 36010KT 08/M02 A3011 RMK A01 T00821018  RH  049%=      5-min Rain = 0
KCL2 240242Z 36010KT 08/M02 A3011 RMK A01 T00811018  RH  050%=      5-min Rain = 0
KCL2 240243Z 35010KT 08/M02 A3011 RMK A01 T00811018  RH  050%=      5-min Rain = 0
KCL2 240244Z 36009KT 08/M02 A3012 RMK A01 T00811018  RH  050%=      5-min Rain = 0
KCL2 240245Z 36011KT 08/M02 A3012 RMK A01 T00811018  RH  050%=      5-min Rain = 0
KCL2 240246Z 36011G16KT 08/M02 A3012 RMK A01 T00811018  RH  050%=      5-min Rain = 0
KCL2 240247Z 36012KT 08/M02 A3012 RMK A01 T00811018  RH  050%=      5-min Rain = 0
KCL2 240248Z 36010KT 08/M02 A3012 RMK A01 T00811018  RH  050%=      5-min Rain = 0
KCL2 240249Z 00011KT 08/M02 A3012 RMK A01 T00801018  RH  050%=      5-min Rain = 0
KCL2 240250Z 35011KT 08/M02 A3012 RMK A01 T00791018  RH  050%=      5-min Rain = 0
KCL2 240251Z 36011KT 08/M02 A3012 RMK A01 T00791018  RH  050%=      5-min Rain = 0
KCL2 240252Z 00011KT 08/M02 A3012 RMK A01 T00791019  RH  050%=      5-min Rain = 0
KCL2 240253Z 00010KT 08/M02 A3012 RMK A01 T00801018  RH  050%=      5-min Rain = 0
KCL2 240254Z 36011KT 08/M02 A3012 RMK A01 T00791018  RH  050%=      5-min Rain = 0
KCL2 240255Z 00010KT 08/M02 A3012 RMK A01 T00791018  RH  050%=      5-min Rain = 0
KCL2 240256Z 36011KT 08/M02 A3012 RMK A01 T00781018  RH  050%=      5-min Rain = 0
KCL2 240257Z 00012KT 08/M02 A3012 RMK A01 T00781018  RH  050%=      5-min Rain = 0
KCL2 240258Z 00012KT 08/M02 A3012 RMK A01 T00781019  RH  050%=      5-min Rain = 0
KCL2 240259Z 00009KT 08/M02 A3012 RMK A01 T00791018  RH  050%=      5-min Rain = 0
KCL2 240300Z 00010KT 08/M02 A3012 RMK A01 T00781018  RH  051%=      5-min Rain = 0
KCL2 240301Z 00011KT 08/M02 A3012 RMK A01 T00781018  RH  051%=      5-min Rain = 0
KCL2 240302Z 01010KT 08/M02 A3012 RMK A01 T00771018  RH  051%=      5-min Rain = 0
KCL2 240303Z 00010KT 08/M02 A3012 RMK A01 T00771018  RH  051%=      5-min Rain = 0
KCL2 240304Z 00009KT 08/M02 A3012 RMK A01 T00771018  RH  051%=      5-min Rain = 0
KCL2 240305Z 01009KT 08/M02 A3012 RMK A01 T00761018  RH  051%=      5-min Rain = 0
KCL2 240306Z 01010KT 08/M02 A3012 RMK A01 T00751018  RH  052%=      5-min Rain = 0
KCL2 240307Z 01010KT 08/M02 A3012 RMK A01 T00751018  RH  052%=      5-min Rain = 0
KCL2 240308Z 36010KT 08/M02 A3012 RMK A01 T00751018  RH  052%=      5-min Rain = 0
KCL2 240309Z 00011KT 08/M02 A3012 RMK A01 T00751019  RH  052%=      5-min Rain = 0
KCL2 240310Z 00010KT 08/M02 A3012 RMK A01 T00751019  RH  051%=      5-min Rain = 0
KCL2 240311Z 01009KT 08/M02 A3013 RMK A01 T00751019  RH  051%=      5-min Rain = 0
KCL2 240312Z 00009KT 08/M02 A3013 RMK A01 T00751018  RH  052%=      5-min Rain = 0
KCL2 240313Z 00010KT 07/M02 A3013 RMK A01 T00741018  RH  052%=      5-min Rain = 0
KCL2 240314Z 00010KT 07/M02 A3013 RMK A01 T00741018  RH  052%=      5-min Rain = 0
KCL2 240315Z 00012KT 08/M02 A3013 RMK A01 T00751019  RH  052%=      5-min Rain = 0
KCL2 240316Z 00011KT 08/M02 A3013 RMK A01 T00751019  RH  051%=      5-min Rain = 0
KCL2 240317Z 00011KT 08/M02 A3013 RMK A01 T00751018  RH  051%=      5-min Rain = 0
KCL2 240318Z 00010KT 08/M02 A3013 RMK A01 T00751018  RH  052%=      5-min Rain = 0
KCL2 240319Z 01010KT 08/M02 A3013 RMK A01 T00751018  RH  052%=      5-min Rain = 0
KCL2 240320Z 00010KT 07/M02 A3013 RMK A01 T00741018  RH  052%=      5-min Rain = 0
KCL2 240321Z 01009KT 08/M02 A3013 RMK A01 T00751018  RH  052%=      5-min Rain = 0
KCL2 240322Z 01009KT 07/M02 A3013 RMK A01 T00741018  RH  052%=      5-min Rain = 0
KCL2 240323Z 01010KT 07/M02 A3013 RMK A01 T00741018  RH  052%=      5-min Rain = 0
KCL2 240324Z 01009KT 07/M02 A3013 RMK A01 T00731018  RH  052%=      5-min Rain = 0
KCL2 240325Z 01008KT 07/M02 A3013 RMK A01 T00731018  RH  052%=      5-min Rain = 0
KCL2 240326Z 01008KT 07/M02 A3013 RMK A01 T00731018  RH  053%=      5-min Rain = 0
KCL2 240327Z 01008KT 07/M02 A3013 RMK A01 T00711019  RH  053%=      5-min Rain = 0
KCL2 240328Z 01008KT 07/M02 A3014 RMK A01 T00721018  RH  053%=      5-min Rain = 0
KCL2 240329Z 01008KT 07/M02 A3014 RMK A01 T00711018  RH  053%=      5-min Rain = 0
KCL2 240330Z 01009KT 07/M02 A3014 RMK A01 T00711018  RH  053%=      5-min Rain = 0
KCL2 240331Z 01007KT 07/M02 A3014 RMK A01 T00711018  RH  053%=      5-min Rain = 0
KCL2 240332Z 01009KT 07/M02 A3014 RMK A01 T00711018  RH  053%=      5-min Rain = 0
KCL2 240333Z 01008KT 07/M02 A3014 RMK A01 T00701019  RH  053%=      5-min Rain = 0
KCL2 240334Z 01008KT 07/M02 A3014 RMK A01 T00701018  RH  053%=      5-min Rain = 0
KCL2 240335Z 01009KT 07/M02 A3014 RMK A01 T00691018  RH  054%=      5-min Rain = 0
KCL2 240336Z 01007KT 07/M02 A3014 RMK A01 T00691018  RH  054%=      5-min Rain = 0
KCL2 240337Z 01006KT 07/M02 A3014 RMK A01 T00681018  RH  054%=      5-min Rain = 0
KCL2 240338Z 02008KT 07/M02 A3014 RMK A01 T00681018  RH  054%=      5-min Rain = 0
KCL2 240339Z 02008KT 07/M02 A3015 RMK A01 T00671018  RH  055%=      5-min Rain = 0
KCL2 240340Z 02008KT 07/M02 A3015 RMK A01 T00671018  RH  055%=      5-min Rain = 0
KCL2 240341Z 01007KT 07/M02 A3015 RMK A01 T00661018  RH  055%=      5-min Rain = 0
KCL2 240342Z 01007KT 07/M02 A3015 RMK A01 T00661018  RH  055%=      5-min Rain = 0
KCL2 240343Z 01007KT 07/M02 A3015 RMK A01 T00661018  RH  055%=      5-min Rain = 0
KCL2 240344Z 02007KT 07/M02 A3015 RMK A01 T00661018  RH  055%=      5-min Rain = 0
KCL2 240345Z 02006KT 07/M02 A3015 RMK A01 T00651018  RH  055%=      5-min Rain = 0
KCL2 240346Z 02008KT 06/M02 A3015 RMK A01 T00641018  RH  056%=      5-min Rain = 0
KCL2 240347Z 02007KT 06/M02 A3015 RMK A01 T00631018  RH  056%=      5-min Rain = 0
KCL2 240348Z 02008KT 06/M02 A3015 RMK A01 T00631018  RH  056%=      5-min Rain = 0
KCL2 240349Z 02008KT 06/M02 A3016 RMK A01 T00631018  RH  056%=      5-min Rain = 0
KCL2 240350Z 02008KT 06/M02 A3016 RMK A01 T00621018  RH  056%=      5-min Rain = 0
KCL2 240351Z 02008KT 06/M02 A3016 RMK A01 T00621018  RH  056%=      5-min Rain = 0
KCL2 240352Z 02008KT 06/M02 A3016 RMK A01 T00621018  RH  056%=      5-min Rain = 0
KCL2 240353Z 02008KT 06/M02 A3016 RMK A01 T00621018  RH  057%=      5-min Rain = 0
KCL2 240354Z 02007KT 06/M02 A3016 RMK A01 T00621018  RH  057%=      5-min Rain = 0
KCL2 240355Z 02007KT 06/M02 A3016 RMK A01 T00621017  RH  057%=      5-min Rain = 0
KCL2 240356Z 02007KT 06/M02 A3016 RMK A01 T00601018  RH  057%=      5-min Rain = 0
KCL2 240357Z 02007KT 06/M02 A3016 RMK A01 T00601018  RH  057%=      5-min Rain = 0
KCL2 240358Z 02007KT 06/M02 A3016 RMK A01 T00601018  RH  057%=      5-min Rain = 0
KCL2 240359Z 02007KT 06/M02 A3016 RMK A01 T00591018  RH  058%=      5-min Rain = 0
KCL2 240400Z 02007KT 06/M02 A3016 RMK A01 T00581018  RH  058%=      5-min Rain = 0
KCL2 240401Z 02007KT 06/M02 A3017 RMK A01 T00571018  RH  058%=      5-min Rain = 0
KCL2 240402Z 02007KT 06/M02 A3017 RMK A01 T00571018  RH  058%=      5-min Rain = 0
KCL2 240403Z 02007KT 06/M02 A3017 RMK A01 T00571018  RH  058%=      5-min Rain = 0
KCL2 240404Z 02006KT 06/M02 A3017 RMK A01 T00571018  RH  058%=      5-min Rain = 0
KCL2 240405Z 02006KT 06/M02 A3017 RMK A01 T00571018  RH  058%=      5-min Rain = 0
KCL2 240406Z 02006KT 06/M02 A3017 RMK A01 T00571018  RH  058%=      5-min Rain = 0
KCL2 240407Z 01005KT 06/M02 A3017 RMK A01 T00571019  RH  058%=      5-min Rain = 0
KCL2 240408Z 01005KT 06/M02 A3017 RMK A01 T00571018  RH  058%=      5-min Rain = 0
KCL2 240409Z 01004KT 06/M02 A3017 RMK A01 T00561019  RH  058%=      5-min Rain = 0
KCL2 240410Z 01005KT 06/M02 A3017 RMK A01 T00561019  RH  058%=      5-min Rain = 0
KCL2 240411Z 01004KT 06/M02 A3017 RMK A01 T00561020  RH  058%=      5-min Rain = 0
KCL2 240412Z 01003KT 06/M02 A3017 RMK A01 T00561020  RH  058%=      5-min Rain = 0
KCL2 240413Z 01003KT 06/M02 A3018 RMK A01 T00551020  RH  058%=      5-min Rain = 0
KCL2 240414Z 01003KT 06/M02 A3018 RMK A01 T00551020  RH  058%=      5-min Rain = 0
KCL2 240415Z 01003KT 06/M02 A3018 RMK A01 T00551020  RH  059%=      5-min Rain = 0
KCL2 240416Z 01002KT 06/M02 A3018 RMK A01 T00551020  RH  059%=      5-min Rain = 0
KCL2 240417Z 00002KT 05/M02 A3018 RMK A01 T00541020  RH  059%=      5-min Rain = 0
KCL2 240418Z 00002KT 05/M02 A3018 RMK A01 T00531020  RH  059%=      5-min Rain = 0
KCL2 240419Z 01002KT 05/M02 A3018 RMK A01 T00531020  RH  059%=      5-min Rain = 0
KCL2 240420Z 02002KT 05/M02 A3018 RMK A01 T00531020  RH  059%=      5-min Rain = 0
KCL2 240421Z 01002KT 05/M02 A3018 RMK A01 T00531020  RH  059%=      5-min Rain = 0
KCL2 240422Z 01002KT 05/M02 A3018 RMK A01 T00531020  RH  059%=      5-min Rain = 0
KCL2 240423Z 00002KT 05/M02 A3018 RMK A01 T00531020  RH  059%=      5-min Rain = 0
KCL2 240424Z 35002KT 05/M02 A3019 RMK A01 T00531020  RH  059%=      5-min Rain = 0
KCL2 240425Z 34001KT 05/M02 A3019 RMK A01 T00531020  RH  059%=      5-min Rain = 0
KCL2 240426Z 33001KT 05/M02 A3019 RMK A01 T00531020  RH  059%=      5-min Rain = 0
KCL2 240427Z 32001KT 05/M02 A3019 RMK A01 T00511022  RH  059%=      5-min Rain = 0
KCL2 240428Z 31001KT 05/M02 A3019 RMK A01 T00501023  RH  059%=      5-min Rain = 0
KCL2 240429Z 32001KT 05/M02 A3019 RMK A01 T00481022  RH  061%=      5-min Rain = 0
KCL2 240430Z 32002KT 05/M02 A3019 RMK A01 T00481021  RH  061%=      5-min Rain = 0
KCL2 240431Z 32002KT 05/M02 A3019 RMK A01 T00471021  RH  061%=      5-min Rain = 0
KCL2 240432Z 31002KT 05/M02 A3019 RMK A01 T00471022  RH  061%=      5-min Rain = 0
KCL2 240433Z 31002KT 05/M02 A3019 RMK A01 T00471022  RH  061%=      5-min Rain = 0
KCL2 240434Z 31002KT 05/M02 A3019 RMK A01 T00481022  RH  061%=      5-min Rain = 0
KCL2 240435Z 31002KT 05/M02 A3019 RMK A01 T00481022  RH  060%=      5-min Rain = 0
KCL2 240436Z 30003KT 05/M02 A3019 RMK A01 T00481022  RH  060%=      5-min Rain = 0
KCL2 240437Z 30003KT 05/M02 A3019 RMK A01 T00491022  RH  060%=      5-min Rain = 0
KCL2 240438Z 30003KT 05/M02 A3019 RMK A01 T00491022  RH  060%=      5-min Rain = 0
KCL2 240439Z 30003KT 05/M02 A3019 RMK A01 T00491022  RH  060%=      5-min Rain = 0
KCL2 240440Z 30003KT 05/M02 A3019 RMK A01 T00481022  RH  060%=      5-min Rain = 0
KCL2 240441Z 30003KT 05/M02 A302 RMK A01 T00481022  RH  060%=      5-min Rain = 0
KCL2 240442Z 30003KT 05/M02 A302 RMK A01 T00481022  RH  060%=      5-min Rain = 0
KCL2 240443Z 30003KT 05/M02 A302 RMK A01 T00471023  RH  061%=      5-min Rain = 0
KCL2 240444Z 30003KT 05/M02 A302 RMK A01 T00461023  RH  061%=      5-min Rain = 0
KCL2 240445Z 31003KT 05/M02 A302 RMK A01 T00461023  RH  061%=      5-min Rain = 0
KCL2 240446Z 31003KT 05/M02 A302 RMK A01 T00461023  RH  061%=      5-min Rain = 0
KCL2 240447Z 32003KT 05/M02 A302 RMK A01 T00461022  RH  061%=      5-min Rain = 0
KCL2 240448Z 32003KT 05/M02 A302 RMK A01 T00471023  RH  061%=      5-min Rain = 0
KCL2 240449Z 32004KT 05/M02 A302 RMK A01 T00481023  RH  060%=      5-min Rain = 0
KCL2 240450Z 32003KT 05/M02 A302 RMK A01 T00481023  RH  060%=      5-min Rain = 0
KCL2 240451Z 32003KT 05/M02 A302 RMK A01 T00481023  RH  060%=      5-min Rain = 0
KCL2 240452Z 31003KT 05/M02 A302 RMK A01 T00481023  RH  060%=      5-min Rain = 0
KCL2 240453Z 31004KT 05/M02 A302 RMK A01 T00481024  RH  060%=      5-min Rain = 0
KCL2 240454Z 31004KT 05/M02 A302 RMK A01 T00481024  RH  060%=      5-min Rain = 0
KCL2 240455Z 31003KT 05/M02 A302 RMK A01 T00481023  RH  060%=      5-min Rain = 0
KCL2 240456Z 31003KT 05/M02 A302 RMK A01 T00491023  RH  060%=      5-min Rain = 0
KCL2 240457Z 32003KT 05/M02 A302 RMK A01 T00491024  RH  059%=      5-min Rain = 0
KCL2 240458Z 32003KT 05/M02 A302 RMK A01 T00491024  RH  059%=      5-min Rain = 0
KCL2 240459Z 32003KT 05/M02 A302 RMK A01 T00481024  RH  059%=      5-min Rain = 0
KCL2 240500Z 32004KT 05/M02 A302 RMK A01 T00481024  RH  060%=      5-min Rain = 0
KCL2 240501Z 32004KT 05/M02 A302 RMK A01 T00481024  RH  060%=      5-min Rain = 0
KCL2 240502Z 32003KT 05/M02 A302 RMK A01 T00471024  RH  060%=      5-min Rain = 0
KCL2 240503Z 32003KT 05/M02 A302 RMK A01 T00471024  RH  060%=      5-min Rain = 0
KCL2 240504Z 32003KT 05/M02 A302 RMK A01 T00461024  RH  060%=      5-min Rain = 0
KCL2 240505Z 32003KT 05/M03 A302 RMK A01 T00461025  RH  060%=      5-min Rain = 0
KCL2 240506Z 32003KT 05/M03 A302 RMK A01 T00451025  RH  061%=      5-min Rain = 0
KCL2 240507Z 32003KT 04/M03 A302 RMK A01 T00441025  RH  061%=      5-min Rain = 0
KCL2 240508Z 32002KT 04/M03 A302 RMK A01 T00431026  RH  061%=      5-min Rain = 0
KCL2 240509Z 31002KT 04/M03 A302 RMK A01 T00391028  RH  062%=      5-min Rain = 0
KCL2 240510Z 30002KT 04/M03 A302 RMK A01 T00371026  RH  063%=      5-min Rain = 0
KCL2 240511Z 30002KT 04/M03 A302 RMK A01 T00371025  RH  064%=      5-min Rain = 0
KCL2 240512Z 30002KT 04/M03 A302 RMK A01 T00361026  RH  064%=      5-min Rain = 0
KCL2 240513Z 29002KT 04/M03 A302 RMK A01 T00361025  RH  064%=      5-min Rain = 0
KCL2 240514Z 28002KT 04/M03 A302 RMK A01 T00361025  RH  064%=      5-min Rain = 0
KCL2 240515Z 28002KT 04/M03 A302 RMK A01 T00361026  RH  064%=      5-min Rain = 0
KCL2 240516Z 28002KT 04/M03 A302 RMK A01 T00351026  RH  064%=      5-min Rain = 0
KCL2 240517Z 26002KT 04/M03 A302 RMK A01 T00361025  RH  064%=      5-min Rain = 0
KCL2 240518Z 26002KT 04/M03 A302 RMK A01 T00361026  RH  064%=      5-min Rain = 0
KCL2 240519Z 25002KT 04/M03 A302 RMK A01 T00361027  RH  064%=      5-min Rain = 0
KCL2 240520Z 25002KT 03/M03 A3021 RMK A01 T00341027  RH  064%=      5-min Rain = 0
KCL2 240521Z 25003KT 03/M03 A3021 RMK A01 T00321028  RH  065%=      5-min Rain = 0
KCL2 240522Z 24003KT 03/M03 A3021 RMK A01 T00311028  RH  065%=      5-min Rain = 0
KCL2 240523Z 25003KT 03/M03 A3021 RMK A01 T00311028  RH  065%=      5-min Rain = 0
KCL2 240524Z 25003KT 03/M03 A3021 RMK A01 T00311027  RH  066%=      5-min Rain = 0
KCL2 240525Z 25003KT 03/M03 A302 RMK A01 T00321027  RH  065%=      5-min Rain = 0
KCL2 240526Z 25003KT 03/M03 A3021 RMK A01 T00331027  RH  065%=      5-min Rain = 0
KCL2 240527Z 26003KT 03/M03 A3021 RMK A01 T00331027  RH  065%=      5-min Rain = 0
KCL2 240528Z 26003KT 03/M03 A302 RMK A01 T00331027  RH  065%=      5-min Rain = 0
KCL2 240529Z 26003KT 03/M03 A302 RMK A01 T00341026  RH  065%=      5-min Rain = 0
KCL2 240530Z 26003KT 04/M03 A3021 RMK A01 T00351025  RH  065%=      5-min Rain = 0
KCL2 240531Z 27003KT 04/M03 A3021 RMK A01 T00371025  RH  064%=      5-min Rain = 0
KCL2 240532Z 27003KT 04/M03 A3021 RMK A01 T00381025  RH  064%=      5-min Rain = 0
KCL2 240533Z 26003KT 04/M03 A3021 RMK A01 T00381025  RH  063%=      5-min Rain = 0
KCL2 240534Z 26003KT 04/M03 A3021 RMK A01 T00381025  RH  063%=      5-min Rain = 0
KCL2 240535Z 26003KT 04/M03 A3021 RMK A01 T00381025  RH  063%=      5-min Rain = 0
KCL2 240536Z 27003KT 04/M03 A3021 RMK A01 T00381026  RH  063%=      5-min Rain = 0
KCL2 240537Z 27003KT 04/M03 A3021 RMK A01 T00371026  RH  063%=      5-min Rain = 0
KCL2 240538Z 27003KT 04/M03 A3021 RMK A01 T00361026  RH  064%=      5-min Rain = 0
KCL2 240539Z 28003KT 04/M03 A3021 RMK A01 T00351027  RH  064%=      5-min Rain = 0
KCL2 240540Z 28003KT 03/M03 A3021 RMK A01 T00341027  RH  064%=      5-min Rain = 0
KCL2 240541Z 28003KT 03/M03 A3021 RMK A01 T00331027  RH  065%=      5-min Rain = 0
KCL2 240542Z 28004KT 03/M03 A3021 RMK A01 T00321027  RH  065%=      5-min Rain = 0
KCL2 240543Z 28004KT 03/M03 A3021 RMK A01 T00311027  RH  065%=      5-min Rain = 0
KCL2 240544Z 29004KT 03/M03 A3021 RMK A01 T00311027  RH  066%=      5-min Rain = 0
KCL2 240545Z 29004KT 03/M03 A3021 RMK A01 T00301027  RH  066%=      5-min Rain = 0
KCL2 240546Z 29004KT 03/M03 A3021 RMK A01 T00291028  RH  066%=      5-min Rain = 0
KCL2 240547Z 29004KT 03/M03 A3021 RMK A01 T00281028  RH  067%=      5-min Rain = 0
KCL2 240548Z 29004KT 03/M03 A3021 RMK A01 T00281026  RH  067%=      5-min Rain = 0
KCL2 240549Z 29004KT 03/M03 A3021 RMK A01 T00291026  RH  067%=      5-min Rain = 0
KCL2 240550Z 29004KT 03/M03 A3021 RMK A01 T00301025  RH  067%=      5-min Rain = 0
KCL2 240551Z 29004KT 03/M02 A3021 RMK A01 T00311024  RH  067%=      5-min Rain = 0
KCL2 240552Z 29004KT 03/M03 A3021 RMK A01 T00321025  RH  066%=      5-min Rain = 0
KCL2 240553Z 30004KT 03/M03 A3021 RMK A01 T00321025  RH  066%=      5-min Rain = 0
KCL2 240554Z 30004KT 03/M03 A3022 RMK A01 T00311026  RH  066%=      5-min Rain = 0
KCL2 240555Z 29004KT 03/M03 A3022 RMK A01 T00301026  RH  066%=      5-min Rain = 0
KCL2 240556Z 30004KT 03/M03 A3022 RMK A01 T00301026  RH  067%=      5-min Rain = 0
KCL2 240557Z 30004KT 03/M03 A3022 RMK A01 T00301026  RH  067%=      5-min Rain = 0
KCL2 240558Z 30004KT 03/M03 A3022 RMK A01 T00291027  RH  067%=      5-min Rain = 0
KCL2 240559Z 30005KT 03/M03 A3022 RMK A01 T00281027  RH  067%=      5-min Rain = 0

Page generated in 0.1218 seconds.